<?xml version="1.0" encoding="UTF-8" standalone="no" ?>
<gpx xmlns="http://www.topografix.com/GPX/1/1" xmlns:xsi="http://www.w3.org/2001/XMLSchema-instance" xsi:schemaLocation="http://www.topografix.com/GPX/1/1 http://www.topografix.com/GPX/1/1/gpx.xsd" version="1.1" creator="VisuGPX - https://www.visugpx.com">
  <metadata>
    <name>Roquebrun 3 descentes</name>
    <desc><![CDATA[A faire samedi]]></desc>
  </metadata>
  <trk>
    <name><![CDATA[ROQUEBRUN]]></name>
    <trkseg>
      <trkpt lat="43.49854" lon="3.02687">
        <ele>94.3465576</ele>
        <time>2010-11-07T06:55:00Z</time>
      </trkpt>
      <trkpt lat="43.49888" lon="3.02695">
        <ele>80.4074707</ele>
        <time>2010-11-07T06:55:24Z</time>
      </trkpt>
      <trkpt lat="43.49875" lon="3.02688">
        <ele>75.6008301</ele>
        <time>2010-11-07T06:59:51Z</time>
      </trkpt>
      <trkpt lat="43.4985" lon="3.02684">
        <ele>76.5621338</ele>
        <time>2010-11-07T07:01:34Z</time>
      </trkpt>
      <trkpt lat="43.49854" lon="3.0269">
        <ele>76.5621338</ele>
        <time>2010-11-07T07:02:00Z</time>
      </trkpt>
      <trkpt lat="43.49843" lon="3.02685">
        <ele>78.9654541</ele>
        <time>2010-11-07T07:03:34Z</time>
      </trkpt>
      <trkpt lat="43.49842" lon="3.02685">
        <ele>79.4460449</ele>
        <time>2010-11-07T07:03:38Z</time>
      </trkpt>
      <trkpt lat="43.4985" lon="3.02678">
        <ele>79.4460449</ele>
        <time>2010-11-07T07:03:44Z</time>
      </trkpt>
      <trkpt lat="43.49849" lon="3.02685">
        <ele>78.4847412</ele>
        <time>2010-11-07T07:04:01Z</time>
      </trkpt>
      <trkpt lat="43.49849" lon="3.02685">
        <ele>77.0428467</ele>
        <time>2010-11-07T07:04:30Z</time>
      </trkpt>
      <trkpt lat="43.49842" lon="3.02721">
        <ele>77.5234375</ele>
        <time>2010-11-07T07:04:49Z</time>
      </trkpt>
      <trkpt lat="43.49842" lon="3.02723">
        <ele>77.5234375</ele>
        <time>2010-11-07T07:04:50Z</time>
      </trkpt>
      <trkpt lat="43.49842" lon="3.02734">
        <ele>78.0040283</ele>
        <time>2010-11-07T07:04:55Z</time>
      </trkpt>
      <trkpt lat="43.49843" lon="3.02741">
        <ele>78.0040283</ele>
        <time>2010-11-07T07:04:58Z</time>
      </trkpt>
      <trkpt lat="43.49848" lon="3.02756">
        <ele>79.4460449</ele>
        <time>2010-11-07T07:05:06Z</time>
      </trkpt>
      <trkpt lat="43.49847" lon="3.0276">
        <ele>79.9266357</ele>
        <time>2010-11-07T07:05:08Z</time>
      </trkpt>
      <trkpt lat="43.49851" lon="3.028">
        <ele>81.8493652</ele>
        <time>2010-11-07T07:05:24Z</time>
      </trkpt>
      <trkpt lat="43.4986" lon="3.0283">
        <ele>83.2913818</ele>
        <time>2010-11-07T07:05:37Z</time>
      </trkpt>
      <trkpt lat="43.49873" lon="3.02855">
        <ele>86.175293</ele>
        <time>2010-11-07T07:05:51Z</time>
      </trkpt>
      <trkpt lat="43.49917" lon="3.02841">
        <ele>88.0980225</ele>
        <time>2010-11-07T07:06:08Z</time>
      </trkpt>
      <trkpt lat="43.49983" lon="3.02806">
        <ele>87.1365967</ele>
        <time>2010-11-07T07:06:32Z</time>
      </trkpt>
      <trkpt lat="43.50025" lon="3.02781">
        <ele>77.5234375</ele>
        <time>2010-11-07T07:06:47Z</time>
      </trkpt>
      <trkpt lat="43.50049" lon="3.02785">
        <ele>79.9266357</ele>
        <time>2010-11-07T07:07:00Z</time>
      </trkpt>
      <trkpt lat="43.50048" lon="3.02842">
        <ele>77.0428467</ele>
        <time>2010-11-07T07:07:17Z</time>
      </trkpt>
      <trkpt lat="43.5005" lon="3.02904">
        <ele>75.6008301</ele>
        <time>2010-11-07T07:07:30Z</time>
      </trkpt>
      <trkpt lat="43.50049" lon="3.02956">
        <ele>71.7554932</ele>
        <time>2010-11-07T07:07:42Z</time>
      </trkpt>
      <trkpt lat="43.50046" lon="3.02972">
        <ele>71.7554932</ele>
        <time>2010-11-07T07:07:46Z</time>
      </trkpt>
      <trkpt lat="43.50038" lon="3.03005">
        <ele>70.7941895</ele>
        <time>2010-11-07T07:07:52Z</time>
      </trkpt>
      <trkpt lat="43.50027" lon="3.03029">
        <ele>70.3134766</ele>
        <time>2010-11-07T07:07:56Z</time>
      </trkpt>
      <trkpt lat="43.49997" lon="3.03095">
        <ele>68.3908691</ele>
        <time>2010-11-07T07:08:04Z</time>
      </trkpt>
      <trkpt lat="43.49953" lon="3.03193">
        <ele>64.5456543</ele>
        <time>2010-11-07T07:08:18Z</time>
      </trkpt>
      <trkpt lat="43.49928" lon="3.03218">
        <ele>65.5070801</ele>
        <time>2010-11-07T07:08:29Z</time>
      </trkpt>
      <trkpt lat="43.49914" lon="3.03215">
        <ele>65.0263672</ele>
        <time>2010-11-07T07:08:36Z</time>
      </trkpt>
      <trkpt lat="43.49912" lon="3.03226">
        <ele>65.0263672</ele>
        <time>2010-11-07T07:08:40Z</time>
      </trkpt>
      <trkpt lat="43.49915" lon="3.03229">
        <ele>65.9876709</ele>
        <time>2010-11-07T07:08:43Z</time>
      </trkpt>
      <trkpt lat="43.49925" lon="3.03255">
        <ele>69.8328857</ele>
        <time>2010-11-07T07:08:55Z</time>
      </trkpt>
      <trkpt lat="43.49925" lon="3.0326">
        <ele>70.7941895</ele>
        <time>2010-11-07T07:08:59Z</time>
      </trkpt>
      <trkpt lat="43.49923" lon="3.03303">
        <ele>73.1976318</ele>
        <time>2010-11-07T07:09:17Z</time>
      </trkpt>
      <trkpt lat="43.49923" lon="3.03339">
        <ele>78.0040283</ele>
        <time>2010-11-07T07:09:33Z</time>
      </trkpt>
      <trkpt lat="43.49925" lon="3.03369">
        <ele>86.6560059</ele>
        <time>2010-11-07T07:09:50Z</time>
      </trkpt>
      <trkpt lat="43.49923" lon="3.03377">
        <ele>86.6560059</ele>
        <time>2010-11-07T07:09:52Z</time>
      </trkpt>
      <trkpt lat="43.49923" lon="3.03386">
        <ele>87.1365967</ele>
        <time>2010-11-07T07:09:56Z</time>
      </trkpt>
      <trkpt lat="43.49921" lon="3.03419">
        <ele>89.539917</ele>
        <time>2010-11-07T07:10:12Z</time>
      </trkpt>
      <trkpt lat="43.49918" lon="3.03442">
        <ele>92.904541</ele>
        <time>2010-11-07T07:10:22Z</time>
      </trkpt>
      <trkpt lat="43.49912" lon="3.03488">
        <ele>95.3077393</ele>
        <time>2010-11-07T07:10:41Z</time>
      </trkpt>
      <trkpt lat="43.49911" lon="3.03504">
        <ele>97.7111816</ele>
        <time>2010-11-07T07:10:49Z</time>
      </trkpt>
      <trkpt lat="43.4991" lon="3.03515">
        <ele>98.6724854</ele>
        <time>2010-11-07T07:10:54Z</time>
      </trkpt>
      <trkpt lat="43.49907" lon="3.03536">
        <ele>101.5563965</ele>
        <time>2010-11-07T07:11:03Z</time>
      </trkpt>
      <trkpt lat="43.49899" lon="3.03576">
        <ele>107.3243408</ele>
        <time>2010-11-07T07:11:21Z</time>
      </trkpt>
      <trkpt lat="43.49895" lon="3.03595">
        <ele>110.208252</ele>
        <time>2010-11-07T07:11:30Z</time>
      </trkpt>
      <trkpt lat="43.49895" lon="3.03595">
        <ele>113.0922852</ele>
        <time>2010-11-07T07:11:34Z</time>
      </trkpt>
      <trkpt lat="43.49894" lon="3.036">
        <ele>114.0535889</ele>
        <time>2010-11-07T07:11:37Z</time>
      </trkpt>
      <trkpt lat="43.49884" lon="3.03631">
        <ele>117.8988037</ele>
        <time>2010-11-07T07:11:53Z</time>
      </trkpt>
      <trkpt lat="43.49884" lon="3.03631">
        <ele>118.3793945</ele>
        <time>2010-11-07T07:11:55Z</time>
      </trkpt>
      <trkpt lat="43.49882" lon="3.03637">
        <ele>119.8214111</ele>
        <time>2010-11-07T07:11:59Z</time>
      </trkpt>
      <trkpt lat="43.4988" lon="3.03646">
        <ele>123.666748</ele>
        <time>2010-11-07T07:12:08Z</time>
      </trkpt>
      <trkpt lat="43.49872" lon="3.0369">
        <ele>128.9541016</ele>
        <time>2010-11-07T07:12:26Z</time>
      </trkpt>
      <trkpt lat="43.49866" lon="3.03736">
        <ele>139.0478516</ele>
        <time>2010-11-07T07:12:48Z</time>
      </trkpt>
      <trkpt lat="43.49864" lon="3.03749">
        <ele>141.4510498</ele>
        <time>2010-11-07T07:12:54Z</time>
      </trkpt>
      <trkpt lat="43.49859" lon="3.03792">
        <ele>152.9869385</ele>
        <time>2010-11-07T07:13:16Z</time>
      </trkpt>
      <trkpt lat="43.49852" lon="3.03828">
        <ele>160.1968994</ele>
        <time>2010-11-07T07:13:34Z</time>
      </trkpt>
      <trkpt lat="43.4985" lon="3.03857">
        <ele>165.9647217</ele>
        <time>2010-11-07T07:13:49Z</time>
      </trkpt>
      <trkpt lat="43.4985" lon="3.03872">
        <ele>166.9260254</ele>
        <time>2010-11-07T07:13:55Z</time>
      </trkpt>
      <trkpt lat="43.49854" lon="3.03915">
        <ele>167.8873291</ele>
        <time>2010-11-07T07:14:13Z</time>
      </trkpt>
      <trkpt lat="43.49854" lon="3.03938">
        <ele>169.3294678</ele>
        <time>2010-11-07T07:14:23Z</time>
      </trkpt>
      <trkpt lat="43.4986" lon="3.03984">
        <ele>174.6165771</ele>
        <time>2010-11-07T07:14:42Z</time>
      </trkpt>
      <trkpt lat="43.49869" lon="3.0402">
        <ele>176.5393066</ele>
        <time>2010-11-07T07:15:00Z</time>
      </trkpt>
      <trkpt lat="43.49878" lon="3.04059">
        <ele>177.0200195</ele>
        <time>2010-11-07T07:15:17Z</time>
      </trkpt>
      <trkpt lat="43.49883" lon="3.04089">
        <ele>178.4619141</ele>
        <time>2010-11-07T07:15:29Z</time>
      </trkpt>
      <trkpt lat="43.49886" lon="3.04119">
        <ele>180.3845215</ele>
        <time>2010-11-07T07:15:41Z</time>
      </trkpt>
      <trkpt lat="43.49897" lon="3.04159">
        <ele>182.3071289</ele>
        <time>2010-11-07T07:15:59Z</time>
      </trkpt>
      <trkpt lat="43.49906" lon="3.04202">
        <ele>184.7105713</ele>
        <time>2010-11-07T07:16:16Z</time>
      </trkpt>
      <trkpt lat="43.49915" lon="3.04251">
        <ele>189.036377</ele>
        <time>2010-11-07T07:16:36Z</time>
      </trkpt>
      <trkpt lat="43.49919" lon="3.0429">
        <ele>187.1137695</ele>
        <time>2010-11-07T07:16:55Z</time>
      </trkpt>
      <trkpt lat="43.49919" lon="3.04291">
        <ele>189.5169678</ele>
        <time>2010-11-07T07:17:13Z</time>
      </trkpt>
      <trkpt lat="43.49919" lon="3.04291">
        <ele>189.9976807</ele>
        <time>2010-11-07T07:17:16Z</time>
      </trkpt>
      <trkpt lat="43.49919" lon="3.04291">
        <ele>189.9976807</ele>
        <time>2010-11-07T07:17:30Z</time>
      </trkpt>
      <trkpt lat="43.49919" lon="3.04291">
        <ele>189.9976807</ele>
        <time>2010-11-07T07:19:22Z</time>
      </trkpt>
      <trkpt lat="43.49919" lon="3.04291">
        <ele>190.4783936</ele>
        <time>2010-11-07T07:19:27Z</time>
      </trkpt>
      <trkpt lat="43.49919" lon="3.04291">
        <ele>190.9589844</ele>
        <time>2010-11-07T07:19:38Z</time>
      </trkpt>
      <trkpt lat="43.49923" lon="3.0433">
        <ele>189.9976807</ele>
        <time>2010-11-07T07:19:46Z</time>
      </trkpt>
      <trkpt lat="43.49952" lon="3.04396">
        <ele>187.1137695</ele>
        <time>2010-11-07T07:19:53Z</time>
      </trkpt>
      <trkpt lat="43.49987" lon="3.0445">
        <ele>182.7878418</ele>
        <time>2010-11-07T07:20:00Z</time>
      </trkpt>
      <trkpt lat="43.49985" lon="3.04491">
        <ele>177.9812012</ele>
        <time>2010-11-07T07:20:07Z</time>
      </trkpt>
      <trkpt lat="43.4998" lon="3.04493">
        <ele>177.5006104</ele>
        <time>2010-11-07T07:20:08Z</time>
      </trkpt>
      <trkpt lat="43.49965" lon="3.04503">
        <ele>176.0585938</ele>
        <time>2010-11-07T07:20:11Z</time>
      </trkpt>
      <trkpt lat="43.49945" lon="3.04549">
        <ele>170.7713623</ele>
        <time>2010-11-07T07:20:24Z</time>
      </trkpt>
      <trkpt lat="43.49925" lon="3.04624">
        <ele>166.9260254</ele>
        <time>2010-11-07T07:20:38Z</time>
      </trkpt>
      <trkpt lat="43.49904" lon="3.04694">
        <ele>164.0421143</ele>
        <time>2010-11-07T07:20:52Z</time>
      </trkpt>
      <trkpt lat="43.49899" lon="3.04708">
        <ele>163.0808105</ele>
        <time>2010-11-07T07:20:55Z</time>
      </trkpt>
      <trkpt lat="43.49886" lon="3.04727">
        <ele>164.5227051</ele>
        <time>2010-11-07T07:21:00Z</time>
      </trkpt>
      <trkpt lat="43.49907" lon="3.04776">
        <ele>167.8873291</ele>
        <time>2010-11-07T07:21:08Z</time>
      </trkpt>
      <trkpt lat="43.49932" lon="3.04832">
        <ele>162.6000977</ele>
        <time>2010-11-07T07:21:16Z</time>
      </trkpt>
      <trkpt lat="43.49952" lon="3.04852">
        <ele>156.3515625</ele>
        <time>2010-11-07T07:21:22Z</time>
      </trkpt>
      <trkpt lat="43.49963" lon="3.04854">
        <ele>157.3128662</ele>
        <time>2010-11-07T07:21:24Z</time>
      </trkpt>
      <trkpt lat="43.49964" lon="3.04876">
        <ele>157.3128662</ele>
        <time>2010-11-07T07:21:28Z</time>
      </trkpt>
      <trkpt lat="43.49962" lon="3.04888">
        <ele>159.2354736</ele>
        <time>2010-11-07T07:21:30Z</time>
      </trkpt>
      <trkpt lat="43.49962" lon="3.04899">
        <ele>155.8709717</ele>
        <time>2010-11-07T07:21:32Z</time>
      </trkpt>
      <trkpt lat="43.49951" lon="3.04909">
        <ele>154.9095459</ele>
        <time>2010-11-07T07:21:37Z</time>
      </trkpt>
      <trkpt lat="43.49927" lon="3.04914">
        <ele>151.064209</ele>
        <time>2010-11-07T07:21:43Z</time>
      </trkpt>
      <trkpt lat="43.49917" lon="3.04922">
        <ele>150.1030273</ele>
        <time>2010-11-07T07:21:45Z</time>
      </trkpt>
      <trkpt lat="43.49903" lon="3.04927">
        <ele>149.1416016</ele>
        <time>2010-11-07T07:21:48Z</time>
      </trkpt>
      <trkpt lat="43.49883" lon="3.04937">
        <ele>146.2578125</ele>
        <time>2010-11-07T07:21:52Z</time>
      </trkpt>
      <trkpt lat="43.49861" lon="3.04971">
        <ele>144.3352051</ele>
        <time>2010-11-07T07:21:58Z</time>
      </trkpt>
      <trkpt lat="43.49852" lon="3.05002">
        <ele>141.9317627</ele>
        <time>2010-11-07T07:22:03Z</time>
      </trkpt>
      <trkpt lat="43.49838" lon="3.05038">
        <ele>140.0091553</ele>
        <time>2010-11-07T07:22:09Z</time>
      </trkpt>
      <trkpt lat="43.49797" lon="3.05056">
        <ele>137.605835</ele>
        <time>2010-11-07T07:22:15Z</time>
      </trkpt>
      <trkpt lat="43.49777" lon="3.05071">
        <ele>136.6446533</ele>
        <time>2010-11-07T07:22:19Z</time>
      </trkpt>
      <trkpt lat="43.49768" lon="3.05121">
        <ele>130.876709</ele>
        <time>2010-11-07T07:22:26Z</time>
      </trkpt>
      <trkpt lat="43.49776" lon="3.05153">
        <ele>126.0699463</ele>
        <time>2010-11-07T07:22:30Z</time>
      </trkpt>
      <trkpt lat="43.49792" lon="3.05205">
        <ele>121.7441406</ele>
        <time>2010-11-07T07:22:40Z</time>
      </trkpt>
      <trkpt lat="43.49792" lon="3.05246">
        <ele>126.0699463</ele>
        <time>2010-11-07T07:22:51Z</time>
      </trkpt>
      <trkpt lat="43.49799" lon="3.05279">
        <ele>132.7993164</ele>
        <time>2010-11-07T07:23:04Z</time>
      </trkpt>
      <trkpt lat="43.4979" lon="3.05323">
        <ele>139.0478516</ele>
        <time>2010-11-07T07:23:21Z</time>
      </trkpt>
      <trkpt lat="43.49775" lon="3.05356">
        <ele>142.4124756</ele>
        <time>2010-11-07T07:23:39Z</time>
      </trkpt>
      <trkpt lat="43.49766" lon="3.05388">
        <ele>150.1030273</ele>
        <time>2010-11-07T07:24:01Z</time>
      </trkpt>
      <trkpt lat="43.49764" lon="3.05398">
        <ele>153.4676514</ele>
        <time>2010-11-07T07:24:13Z</time>
      </trkpt>
      <trkpt lat="43.49763" lon="3.05436">
        <ele>152.9869385</ele>
        <time>2010-11-07T07:24:19Z</time>
      </trkpt>
      <trkpt lat="43.4976" lon="3.0545">
        <ele>154.4289551</ele>
        <time>2010-11-07T07:24:26Z</time>
      </trkpt>
      <trkpt lat="43.49758" lon="3.05474">
        <ele>157.7935791</ele>
        <time>2010-11-07T07:24:40Z</time>
      </trkpt>
      <trkpt lat="43.49758" lon="3.05487">
        <ele>162.6000977</ele>
        <time>2010-11-07T07:24:56Z</time>
      </trkpt>
      <trkpt lat="43.49758" lon="3.05487">
        <ele>163.5615234</ele>
        <time>2010-11-07T07:25:00Z</time>
      </trkpt>
      <trkpt lat="43.49758" lon="3.05487">
        <ele>165.003418</ele>
        <time>2010-11-07T07:25:04Z</time>
      </trkpt>
      <trkpt lat="43.49762" lon="3.05531">
        <ele>167.8873291</ele>
        <time>2010-11-07T07:25:18Z</time>
      </trkpt>
      <trkpt lat="43.49762" lon="3.05531">
        <ele>168.8487549</ele>
        <time>2010-11-07T07:25:21Z</time>
      </trkpt>
      <trkpt lat="43.49764" lon="3.05552">
        <ele>170.7713623</ele>
        <time>2010-11-07T07:25:26Z</time>
      </trkpt>
      <trkpt lat="43.49756" lon="3.05569">
        <ele>175.5778809</ele>
        <time>2010-11-07T07:25:43Z</time>
      </trkpt>
      <trkpt lat="43.49756" lon="3.05569">
        <ele>177.5006104</ele>
        <time>2010-11-07T07:26:04Z</time>
      </trkpt>
      <trkpt lat="43.49756" lon="3.05569">
        <ele>181.3458252</ele>
        <time>2010-11-07T07:26:27Z</time>
      </trkpt>
      <trkpt lat="43.49756" lon="3.05569">
        <ele>186.1524658</ele>
        <time>2010-11-07T07:26:45Z</time>
      </trkpt>
      <trkpt lat="43.49756" lon="3.05569">
        <ele>188.5557861</ele>
        <time>2010-11-07T07:27:00Z</time>
      </trkpt>
      <trkpt lat="43.49756" lon="3.05569">
        <ele>192.401123</ele>
        <time>2010-11-07T07:27:22Z</time>
      </trkpt>
      <trkpt lat="43.49756" lon="3.05569">
        <ele>192.401123</ele>
        <time>2010-11-07T07:27:49Z</time>
      </trkpt>
      <trkpt lat="43.49717" lon="3.05666">
        <ele>192.401123</ele>
        <time>2010-11-07T07:27:53Z</time>
      </trkpt>
      <trkpt lat="43.49717" lon="3.05668">
        <ele>192.401123</ele>
        <time>2010-11-07T07:27:57Z</time>
      </trkpt>
      <trkpt lat="43.49718" lon="3.05686">
        <ele>192.8817139</ele>
        <time>2010-11-07T07:28:05Z</time>
      </trkpt>
      <trkpt lat="43.49718" lon="3.05686">
        <ele>192.8817139</ele>
        <time>2010-11-07T07:28:09Z</time>
      </trkpt>
      <trkpt lat="43.49714" lon="3.05712">
        <ele>193.8430176</ele>
        <time>2010-11-07T07:28:15Z</time>
      </trkpt>
      <trkpt lat="43.49709" lon="3.05744">
        <ele>199.6108398</ele>
        <time>2010-11-07T07:28:33Z</time>
      </trkpt>
      <trkpt lat="43.49705" lon="3.05752">
        <ele>200.0916748</ele>
        <time>2010-11-07T07:28:36Z</time>
      </trkpt>
      <trkpt lat="43.49705" lon="3.05752">
        <ele>200.5722656</ele>
        <time>2010-11-07T07:28:38Z</time>
      </trkpt>
      <trkpt lat="43.49705" lon="3.05752">
        <ele>201.5335693</ele>
        <time>2010-11-07T07:28:40Z</time>
      </trkpt>
      <trkpt lat="43.49698" lon="3.05772">
        <ele>208.7434082</ele>
        <time>2010-11-07T07:28:55Z</time>
      </trkpt>
      <trkpt lat="43.49698" lon="3.05772">
        <ele>211.1467285</ele>
        <time>2010-11-07T07:29:11Z</time>
      </trkpt>
      <trkpt lat="43.49694" lon="3.05815">
        <ele>214.0306396</ele>
        <time>2010-11-07T07:29:22Z</time>
      </trkpt>
      <trkpt lat="43.49694" lon="3.05815">
        <ele>214.5112305</ele>
        <time>2010-11-07T07:29:40Z</time>
      </trkpt>
      <trkpt lat="43.49694" lon="3.05815">
        <ele>215.4726563</ele>
        <time>2010-11-07T07:30:02Z</time>
      </trkpt>
      <trkpt lat="43.49694" lon="3.05815">
        <ele>215.4726563</ele>
        <time>2010-11-07T07:30:32Z</time>
      </trkpt>
      <trkpt lat="43.49719" lon="3.05831">
        <ele>222.2017822</ele>
        <time>2010-11-07T07:30:49Z</time>
      </trkpt>
      <trkpt lat="43.49757" lon="3.05812">
        <ele>227.0085449</ele>
        <time>2010-11-07T07:31:08Z</time>
      </trkpt>
      <trkpt lat="43.49794" lon="3.05791">
        <ele>231.3343506</ele>
        <time>2010-11-07T07:31:29Z</time>
      </trkpt>
      <trkpt lat="43.49825" lon="3.05769">
        <ele>234.6990967</ele>
        <time>2010-11-07T07:31:49Z</time>
      </trkpt>
      <trkpt lat="43.4984" lon="3.0576">
        <ele>237.1022949</ele>
        <time>2010-11-07T07:32:00Z</time>
      </trkpt>
      <trkpt lat="43.49862" lon="3.05757">
        <ele>242.3896484</ele>
        <time>2010-11-07T07:32:16Z</time>
      </trkpt>
      <trkpt lat="43.49876" lon="3.05775">
        <ele>243.3508301</ele>
        <time>2010-11-07T07:32:28Z</time>
      </trkpt>
      <trkpt lat="43.49876" lon="3.05775">
        <ele>243.3508301</ele>
        <time>2010-11-07T07:32:29Z</time>
      </trkpt>
      <trkpt lat="43.49897" lon="3.05798">
        <ele>244.7928467</ele>
        <time>2010-11-07T07:32:47Z</time>
      </trkpt>
      <trkpt lat="43.49908" lon="3.05795">
        <ele>246.7154541</ele>
        <time>2010-11-07T07:32:56Z</time>
      </trkpt>
      <trkpt lat="43.49934" lon="3.05767">
        <ele>250.0802002</ele>
        <time>2010-11-07T07:33:17Z</time>
      </trkpt>
      <trkpt lat="43.49963" lon="3.05763">
        <ele>250.0802002</ele>
        <time>2010-11-07T07:33:35Z</time>
      </trkpt>
      <trkpt lat="43.49976" lon="3.05742">
        <ele>254.4060059</ele>
        <time>2010-11-07T07:33:49Z</time>
      </trkpt>
      <trkpt lat="43.50006" lon="3.05717">
        <ele>260.654541</ele>
        <time>2010-11-07T07:34:12Z</time>
      </trkpt>
      <trkpt lat="43.50008" lon="3.05714">
        <ele>260.654541</ele>
        <time>2010-11-07T07:34:14Z</time>
      </trkpt>
      <trkpt lat="43.50016" lon="3.0567">
        <ele>261.6159668</ele>
        <time>2010-11-07T07:34:36Z</time>
      </trkpt>
      <trkpt lat="43.50017" lon="3.05628">
        <ele>260.654541</ele>
        <time>2010-11-07T07:34:55Z</time>
      </trkpt>
      <trkpt lat="43.50021" lon="3.05582">
        <ele>259.2126465</ele>
        <time>2010-11-07T07:35:15Z</time>
      </trkpt>
      <trkpt lat="43.5004" lon="3.0555">
        <ele>268.8258057</ele>
        <time>2010-11-07T07:35:36Z</time>
      </trkpt>
      <trkpt lat="43.50068" lon="3.05516">
        <ele>272.1904297</ele>
        <time>2010-11-07T07:36:00Z</time>
      </trkpt>
      <trkpt lat="43.50091" lon="3.05501">
        <ele>275.5550537</ele>
        <time>2010-11-07T07:36:17Z</time>
      </trkpt>
      <trkpt lat="43.50093" lon="3.055">
        <ele>275.5550537</ele>
        <time>2010-11-07T07:36:18Z</time>
      </trkpt>
      <trkpt lat="43.50097" lon="3.05497">
        <ele>276.9970703</ele>
        <time>2010-11-07T07:36:22Z</time>
      </trkpt>
      <trkpt lat="43.50099" lon="3.05496">
        <ele>277.4776611</ele>
        <time>2010-11-07T07:36:24Z</time>
      </trkpt>
      <trkpt lat="43.5012" lon="3.05509">
        <ele>278.4389648</ele>
        <time>2010-11-07T07:36:39Z</time>
      </trkpt>
      <trkpt lat="43.50134" lon="3.05537">
        <ele>279.8808594</ele>
        <time>2010-11-07T07:36:57Z</time>
      </trkpt>
      <trkpt lat="43.50146" lon="3.05555">
        <ele>281.322998</ele>
        <time>2010-11-07T07:37:10Z</time>
      </trkpt>
      <trkpt lat="43.50156" lon="3.05574">
        <ele>280.3616943</ele>
        <time>2010-11-07T07:37:22Z</time>
      </trkpt>
      <trkpt lat="43.50177" lon="3.05582">
        <ele>282.7650146</ele>
        <time>2010-11-07T07:37:37Z</time>
      </trkpt>
      <trkpt lat="43.5018" lon="3.05583">
        <ele>283.2456055</ele>
        <time>2010-11-07T07:37:40Z</time>
      </trkpt>
      <trkpt lat="43.50192" lon="3.0559">
        <ele>284.6876221</ele>
        <time>2010-11-07T07:37:47Z</time>
      </trkpt>
      <trkpt lat="43.50221" lon="3.05597">
        <ele>293.8200684</ele>
        <time>2010-11-07T07:38:06Z</time>
      </trkpt>
      <trkpt lat="43.50239" lon="3.05599">
        <ele>292.8587646</ele>
        <time>2010-11-07T07:38:18Z</time>
      </trkpt>
      <trkpt lat="43.50245" lon="3.05599">
        <ele>294.7813721</ele>
        <time>2010-11-07T07:38:23Z</time>
      </trkpt>
      <trkpt lat="43.50265" lon="3.05596">
        <ele>296.2235107</ele>
        <time>2010-11-07T07:38:39Z</time>
      </trkpt>
      <trkpt lat="43.50292" lon="3.0558">
        <ele>302.4719238</ele>
        <time>2010-11-07T07:38:56Z</time>
      </trkpt>
      <trkpt lat="43.5031" lon="3.05562">
        <ele>307.7592773</ele>
        <time>2010-11-07T07:39:11Z</time>
      </trkpt>
      <trkpt lat="43.50335" lon="3.0554">
        <ele>314.4884033</ele>
        <time>2010-11-07T07:39:30Z</time>
      </trkpt>
      <trkpt lat="43.50351" lon="3.05526">
        <ele>316.8917236</ele>
        <time>2010-11-07T07:39:43Z</time>
      </trkpt>
      <trkpt lat="43.50371" lon="3.05492">
        <ele>319.7756348</ele>
        <time>2010-11-07T07:40:05Z</time>
      </trkpt>
      <trkpt lat="43.50381" lon="3.05476">
        <ele>321.6983643</ele>
        <time>2010-11-07T07:40:17Z</time>
      </trkpt>
      <trkpt lat="43.5041" lon="3.0546">
        <ele>319.7756348</ele>
        <time>2010-11-07T07:40:40Z</time>
      </trkpt>
      <trkpt lat="43.5043" lon="3.05453">
        <ele>321.6983643</ele>
        <time>2010-11-07T07:40:56Z</time>
      </trkpt>
      <trkpt lat="43.50455" lon="3.05439">
        <ele>327.9467773</ele>
        <time>2010-11-07T07:41:16Z</time>
      </trkpt>
      <trkpt lat="43.50461" lon="3.05435">
        <ele>330.3502197</ele>
        <time>2010-11-07T07:41:21Z</time>
      </trkpt>
      <trkpt lat="43.50479" lon="3.05404">
        <ele>334.1954346</ele>
        <time>2010-11-07T07:41:42Z</time>
      </trkpt>
      <trkpt lat="43.50488" lon="3.05375">
        <ele>334.6761475</ele>
        <time>2010-11-07T07:41:58Z</time>
      </trkpt>
      <trkpt lat="43.50491" lon="3.05327">
        <ele>332.2728271</ele>
        <time>2010-11-07T07:42:21Z</time>
      </trkpt>
      <trkpt lat="43.50481" lon="3.05298">
        <ele>329.388916</ele>
        <time>2010-11-07T07:42:37Z</time>
      </trkpt>
      <trkpt lat="43.50462" lon="3.05274">
        <ele>333.2341309</ele>
        <time>2010-11-07T07:42:54Z</time>
      </trkpt>
      <trkpt lat="43.50443" lon="3.05261">
        <ele>335.1567383</ele>
        <time>2010-11-07T07:43:10Z</time>
      </trkpt>
      <trkpt lat="43.50423" lon="3.05251">
        <ele>339.482666</ele>
        <time>2010-11-07T07:43:25Z</time>
      </trkpt>
      <trkpt lat="43.50421" lon="3.0525">
        <ele>339.482666</ele>
        <time>2010-11-07T07:43:26Z</time>
      </trkpt>
      <trkpt lat="43.50414" lon="3.05248">
        <ele>340.4440918</ele>
        <time>2010-11-07T07:43:30Z</time>
      </trkpt>
      <trkpt lat="43.50409" lon="3.05244">
        <ele>341.8859863</ele>
        <time>2010-11-07T07:43:34Z</time>
      </trkpt>
      <trkpt lat="43.50392" lon="3.05206">
        <ele>346.2120361</ele>
        <time>2010-11-07T07:43:55Z</time>
      </trkpt>
      <trkpt lat="43.50378" lon="3.05197">
        <ele>348.6152344</ele>
        <time>2010-11-07T07:44:07Z</time>
      </trkpt>
      <trkpt lat="43.50354" lon="3.05194">
        <ele>352.9411621</ele>
        <time>2010-11-07T07:44:30Z</time>
      </trkpt>
      <trkpt lat="43.50348" lon="3.05196">
        <ele>353.9025879</ele>
        <time>2010-11-07T07:44:34Z</time>
      </trkpt>
      <trkpt lat="43.50327" lon="3.05201">
        <ele>356.786377</ele>
        <time>2010-11-07T07:44:44Z</time>
      </trkpt>
      <trkpt lat="43.50325" lon="3.0519">
        <ele>357.7478027</ele>
        <time>2010-11-07T07:44:54Z</time>
      </trkpt>
      <trkpt lat="43.50347" lon="3.05185">
        <ele>360.151123</ele>
        <time>2010-11-07T07:45:09Z</time>
      </trkpt>
      <trkpt lat="43.50374" lon="3.0518">
        <ele>365.4383545</ele>
        <time>2010-11-07T07:45:25Z</time>
      </trkpt>
      <trkpt lat="43.50396" lon="3.05176">
        <ele>362.0737305</ele>
        <time>2010-11-07T07:45:39Z</time>
      </trkpt>
      <trkpt lat="43.50405" lon="3.05177">
        <ele>363.0350342</ele>
        <time>2010-11-07T07:45:45Z</time>
      </trkpt>
      <trkpt lat="43.50422" lon="3.05178">
        <ele>363.9963379</ele>
        <time>2010-11-07T07:45:56Z</time>
      </trkpt>
      <trkpt lat="43.5042" lon="3.05169">
        <ele>366.3995361</ele>
        <time>2010-11-07T07:46:02Z</time>
      </trkpt>
      <trkpt lat="43.50395" lon="3.05145">
        <ele>370.244873</ele>
        <time>2010-11-07T07:46:20Z</time>
      </trkpt>
      <trkpt lat="43.50384" lon="3.05138">
        <ele>370.7255859</ele>
        <time>2010-11-07T07:46:27Z</time>
      </trkpt>
      <trkpt lat="43.50369" lon="3.05125">
        <ele>374.0900879</ele>
        <time>2010-11-07T07:46:39Z</time>
      </trkpt>
      <trkpt lat="43.50368" lon="3.0512">
        <ele>375.0515137</ele>
        <time>2010-11-07T07:46:42Z</time>
      </trkpt>
      <trkpt lat="43.50371" lon="3.05116">
        <ele>378.4161377</ele>
        <time>2010-11-07T07:46:47Z</time>
      </trkpt>
      <trkpt lat="43.50396" lon="3.05123">
        <ele>381.7806396</ele>
        <time>2010-11-07T07:47:07Z</time>
      </trkpt>
      <trkpt lat="43.5043" lon="3.05145">
        <ele>381.7806396</ele>
        <time>2010-11-07T07:47:23Z</time>
      </trkpt>
      <trkpt lat="43.50458" lon="3.05157">
        <ele>378.8968506</ele>
        <time>2010-11-07T07:47:38Z</time>
      </trkpt>
      <trkpt lat="43.50494" lon="3.05155">
        <ele>386.5874023</ele>
        <time>2010-11-07T07:47:57Z</time>
      </trkpt>
      <trkpt lat="43.50519" lon="3.05128">
        <ele>388.5100098</ele>
        <time>2010-11-07T07:48:14Z</time>
      </trkpt>
      <trkpt lat="43.50531" lon="3.051">
        <ele>386.5874023</ele>
        <time>2010-11-07T07:48:22Z</time>
      </trkpt>
      <trkpt lat="43.50554" lon="3.05057">
        <ele>385.6259766</ele>
        <time>2010-11-07T07:48:32Z</time>
      </trkpt>
      <trkpt lat="43.50568" lon="3.05034">
        <ele>391.8745117</ele>
        <time>2010-11-07T07:48:43Z</time>
      </trkpt>
      <trkpt lat="43.50598" lon="3.05">
        <ele>403.4104004</ele>
        <time>2010-11-07T07:49:03Z</time>
      </trkpt>
      <trkpt lat="43.50606" lon="3.04994">
        <ele>406.2943115</ele>
        <time>2010-11-07T07:49:09Z</time>
      </trkpt>
      <trkpt lat="43.50636" lon="3.04979">
        <ele>412.0622559</ele>
        <time>2010-11-07T07:49:28Z</time>
      </trkpt>
      <trkpt lat="43.50641" lon="3.04978">
        <ele>412.5428467</ele>
        <time>2010-11-07T07:49:32Z</time>
      </trkpt>
      <trkpt lat="43.50674" lon="3.04974">
        <ele>410.1396484</ele>
        <time>2010-11-07T07:49:51Z</time>
      </trkpt>
      <trkpt lat="43.50701" lon="3.04982">
        <ele>401.0070801</ele>
        <time>2010-11-07T07:50:04Z</time>
      </trkpt>
      <trkpt lat="43.50738" lon="3.04995">
        <ele>402.4490967</ele>
        <time>2010-11-07T07:50:22Z</time>
      </trkpt>
      <trkpt lat="43.50763" lon="3.05">
        <ele>403.8911133</ele>
        <time>2010-11-07T07:50:35Z</time>
      </trkpt>
      <trkpt lat="43.50788" lon="3.05005">
        <ele>415.4268799</ele>
        <time>2010-11-07T07:50:50Z</time>
      </trkpt>
      <trkpt lat="43.5079" lon="3.05005">
        <ele>415.4268799</ele>
        <time>2010-11-07T07:50:51Z</time>
      </trkpt>
      <trkpt lat="43.50805" lon="3.05011">
        <ele>413.9848633</ele>
        <time>2010-11-07T07:51:01Z</time>
      </trkpt>
      <trkpt lat="43.50807" lon="3.05015">
        <ele>414.946167</ele>
        <time>2010-11-07T07:51:05Z</time>
      </trkpt>
      <trkpt lat="43.50836" lon="3.05031">
        <ele>429.3659668</ele>
        <time>2010-11-07T07:51:17Z</time>
      </trkpt>
      <trkpt lat="43.50836" lon="3.05031">
        <ele>431.2885742</ele>
        <time>2010-11-07T07:51:19Z</time>
      </trkpt>
      <trkpt lat="43.50862" lon="3.05026">
        <ele>434.1726074</ele>
        <time>2010-11-07T07:51:31Z</time>
      </trkpt>
      <trkpt lat="43.50883" lon="3.05025">
        <ele>437.5371094</ele>
        <time>2010-11-07T07:51:40Z</time>
      </trkpt>
      <trkpt lat="43.50892" lon="3.05026">
        <ele>439.4597168</ele>
        <time>2010-11-07T07:51:49Z</time>
      </trkpt>
      <trkpt lat="43.50904" lon="3.05037">
        <ele>442.3438721</ele>
        <time>2010-11-07T07:52:05Z</time>
      </trkpt>
      <trkpt lat="43.50934" lon="3.05018">
        <ele>445.2276611</ele>
        <time>2010-11-07T07:52:21Z</time>
      </trkpt>
      <trkpt lat="43.50972" lon="3.04968">
        <ele>441.8631592</ele>
        <time>2010-11-07T07:52:44Z</time>
      </trkpt>
      <trkpt lat="43.51004" lon="3.04933">
        <ele>446.1890869</ele>
        <time>2010-11-07T07:53:06Z</time>
      </trkpt>
      <trkpt lat="43.51038" lon="3.04921">
        <ele>445.2276611</ele>
        <time>2010-11-07T07:53:25Z</time>
      </trkpt>
      <trkpt lat="43.51049" lon="3.0492">
        <ele>446.6696777</ele>
        <time>2010-11-07T07:53:32Z</time>
      </trkpt>
      <trkpt lat="43.51055" lon="3.04919">
        <ele>448.1118164</ele>
        <time>2010-11-07T07:53:42Z</time>
      </trkpt>
      <trkpt lat="43.51055" lon="3.04919">
        <ele>449.072998</ele>
        <time>2010-11-07T07:53:44Z</time>
      </trkpt>
      <trkpt lat="43.51073" lon="3.04863">
        <ele>449.072998</ele>
        <time>2010-11-07T07:54:03Z</time>
      </trkpt>
      <trkpt lat="43.51078" lon="3.04837">
        <ele>448.1118164</ele>
        <time>2010-11-07T07:54:10Z</time>
      </trkpt>
      <trkpt lat="43.51079" lon="3.04835">
        <ele>448.1118164</ele>
        <time>2010-11-07T07:54:12Z</time>
      </trkpt>
      <trkpt lat="43.51085" lon="3.04849">
        <ele>450.5150146</ele>
        <time>2010-11-07T07:54:19Z</time>
      </trkpt>
      <trkpt lat="43.51092" lon="3.04894">
        <ele>453.8796387</ele>
        <time>2010-11-07T07:54:35Z</time>
      </trkpt>
      <trkpt lat="43.511" lon="3.0492">
        <ele>454.8408203</ele>
        <time>2010-11-07T07:54:46Z</time>
      </trkpt>
      <trkpt lat="43.51103" lon="3.04931">
        <ele>457.2442627</ele>
        <time>2010-11-07T07:54:52Z</time>
      </trkpt>
      <trkpt lat="43.51103" lon="3.04933">
        <ele>457.7249756</ele>
        <time>2010-11-07T07:55:02Z</time>
      </trkpt>
      <trkpt lat="43.51099" lon="3.04961">
        <ele>459.1668701</ele>
        <time>2010-11-07T07:55:10Z</time>
      </trkpt>
      <trkpt lat="43.51087" lon="3.04974">
        <ele>458.6861572</ele>
        <time>2010-11-07T07:55:14Z</time>
      </trkpt>
      <trkpt lat="43.51071" lon="3.04976">
        <ele>460.6087646</ele>
        <time>2010-11-07T07:55:21Z</time>
      </trkpt>
      <trkpt lat="43.5104" lon="3.05012">
        <ele>466.8574219</ele>
        <time>2010-11-07T07:55:37Z</time>
      </trkpt>
      <trkpt lat="43.51039" lon="3.05017">
        <ele>469.2607422</ele>
        <time>2010-11-07T07:55:40Z</time>
      </trkpt>
      <trkpt lat="43.51036" lon="3.05023">
        <ele>470.7026367</ele>
        <time>2010-11-07T07:55:43Z</time>
      </trkpt>
      <trkpt lat="43.51027" lon="3.05048">
        <ele>473.5866699</ele>
        <time>2010-11-07T07:55:59Z</time>
      </trkpt>
      <trkpt lat="43.51027" lon="3.05048">
        <ele>475.0286865</ele>
        <time>2010-11-07T07:56:30Z</time>
      </trkpt>
      <trkpt lat="43.51027" lon="3.05048">
        <ele>474.5479736</ele>
        <time>2010-11-07T07:57:15Z</time>
      </trkpt>
      <trkpt lat="43.51023" lon="3.0507">
        <ele>473.1060791</ele>
        <time>2010-11-07T07:57:26Z</time>
      </trkpt>
      <trkpt lat="43.51023" lon="3.0507">
        <ele>470.7026367</ele>
        <time>2010-11-07T07:58:01Z</time>
      </trkpt>
      <trkpt lat="43.51023" lon="3.0507">
        <ele>466.376709</ele>
        <time>2010-11-07T08:01:32Z</time>
      </trkpt>
      <trkpt lat="43.51023" lon="3.0507">
        <ele>474.0672607</ele>
        <time>2010-11-07T08:01:59Z</time>
      </trkpt>
      <trkpt lat="43.51023" lon="3.0507">
        <ele>478.8739014</ele>
        <time>2010-11-07T08:02:18Z</time>
      </trkpt>
      <trkpt lat="43.50974" lon="3.05211">
        <ele>482.2385254</ele>
        <time>2010-11-07T08:02:41Z</time>
      </trkpt>
      <trkpt lat="43.50967" lon="3.05234">
        <ele>483.1998291</ele>
        <time>2010-11-07T08:02:50Z</time>
      </trkpt>
      <trkpt lat="43.5096" lon="3.05278">
        <ele>480.315918</ele>
        <time>2010-11-07T08:03:09Z</time>
      </trkpt>
      <trkpt lat="43.5096" lon="3.05279">
        <ele>479.3544922</ele>
        <time>2010-11-07T08:04:32Z</time>
      </trkpt>
      <trkpt lat="43.50957" lon="3.05296">
        <ele>477.9124756</ele>
        <time>2010-11-07T08:04:40Z</time>
      </trkpt>
      <trkpt lat="43.50957" lon="3.05302">
        <ele>477.4318848</ele>
        <time>2010-11-07T08:04:42Z</time>
      </trkpt>
      <trkpt lat="43.50959" lon="3.05313">
        <ele>476.4705811</ele>
        <time>2010-11-07T08:04:49Z</time>
      </trkpt>
      <trkpt lat="43.50955" lon="3.05319">
        <ele>476.4705811</ele>
        <time>2010-11-07T08:04:51Z</time>
      </trkpt>
      <trkpt lat="43.50945" lon="3.05346">
        <ele>474.5479736</ele>
        <time>2010-11-07T08:04:55Z</time>
      </trkpt>
      <trkpt lat="43.50938" lon="3.05351">
        <ele>471.6639404</ele>
        <time>2010-11-07T08:05:01Z</time>
      </trkpt>
      <trkpt lat="43.50914" lon="3.05467">
        <ele>458.6861572</ele>
        <time>2010-11-07T08:05:13Z</time>
      </trkpt>
      <trkpt lat="43.50908" lon="3.05503">
        <ele>451.4763184</ele>
        <time>2010-11-07T08:05:19Z</time>
      </trkpt>
      <trkpt lat="43.50893" lon="3.05574">
        <ele>439.4597168</ele>
        <time>2010-11-07T08:05:30Z</time>
      </trkpt>
      <trkpt lat="43.50887" lon="3.05596">
        <ele>435.614502</ele>
        <time>2010-11-07T08:05:33Z</time>
      </trkpt>
      <trkpt lat="43.50882" lon="3.05615">
        <ele>433.2113037</ele>
        <time>2010-11-07T08:05:37Z</time>
      </trkpt>
      <trkpt lat="43.50869" lon="3.05668">
        <ele>425.0401611</ele>
        <time>2010-11-07T08:05:46Z</time>
      </trkpt>
      <trkpt lat="43.50872" lon="3.05673">
        <ele>422.1560059</ele>
        <time>2010-11-07T08:05:51Z</time>
      </trkpt>
      <trkpt lat="43.50878" lon="3.05673">
        <ele>420.7141113</ele>
        <time>2010-11-07T08:05:56Z</time>
      </trkpt>
      <trkpt lat="43.50882" lon="3.05703">
        <ele>413.9848633</ele>
        <time>2010-11-07T08:06:04Z</time>
      </trkpt>
      <trkpt lat="43.50882" lon="3.05711">
        <ele>412.0622559</ele>
        <time>2010-11-07T08:06:06Z</time>
      </trkpt>
      <trkpt lat="43.50885" lon="3.05772">
        <ele>397.6424561</ele>
        <time>2010-11-07T08:06:16Z</time>
      </trkpt>
      <trkpt lat="43.50888" lon="3.05781">
        <ele>394.2779541</ele>
        <time>2010-11-07T08:06:18Z</time>
      </trkpt>
      <trkpt lat="43.50893" lon="3.05798">
        <ele>389.4711914</ele>
        <time>2010-11-07T08:06:25Z</time>
      </trkpt>
      <trkpt lat="43.50892" lon="3.05821">
        <ele>387.548584</ele>
        <time>2010-11-07T08:06:32Z</time>
      </trkpt>
      <trkpt lat="43.50907" lon="3.05859">
        <ele>382.2613525</ele>
        <time>2010-11-07T08:06:40Z</time>
      </trkpt>
      <trkpt lat="43.5091" lon="3.05904">
        <ele>372.1674805</ele>
        <time>2010-11-07T08:06:51Z</time>
      </trkpt>
      <trkpt lat="43.50902" lon="3.05941">
        <ele>370.7255859</ele>
        <time>2010-11-07T08:07:01Z</time>
      </trkpt>
      <trkpt lat="43.50899" lon="3.0596">
        <ele>372.6481934</ele>
        <time>2010-11-07T08:07:04Z</time>
      </trkpt>
      <trkpt lat="43.50891" lon="3.05978">
        <ele>371.6868896</ele>
        <time>2010-11-07T08:07:11Z</time>
      </trkpt>
      <trkpt lat="43.50886" lon="3.05978">
        <ele>374.5708008</ele>
        <time>2010-11-07T08:07:18Z</time>
      </trkpt>
      <trkpt lat="43.50896" lon="3.06014">
        <ele>375.0515137</ele>
        <time>2010-11-07T08:07:32Z</time>
      </trkpt>
      <trkpt lat="43.50894" lon="3.06034">
        <ele>371.2062988</ele>
        <time>2010-11-07T08:07:45Z</time>
      </trkpt>
      <trkpt lat="43.50883" lon="3.06041">
        <ele>367.8415527</ele>
        <time>2010-11-07T08:08:17Z</time>
      </trkpt>
      <trkpt lat="43.50893" lon="3.06113">
        <ele>363.0350342</ele>
        <time>2010-11-07T08:08:28Z</time>
      </trkpt>
      <trkpt lat="43.50896" lon="3.06128">
        <ele>361.5931396</ele>
        <time>2010-11-07T08:08:40Z</time>
      </trkpt>
      <trkpt lat="43.50896" lon="3.0613">
        <ele>361.5931396</ele>
        <time>2010-11-07T08:08:42Z</time>
      </trkpt>
      <trkpt lat="43.50896" lon="3.06144">
        <ele>359.1896973</ele>
        <time>2010-11-07T08:08:47Z</time>
      </trkpt>
      <trkpt lat="43.50881" lon="3.06156">
        <ele>358.7089844</ele>
        <time>2010-11-07T08:08:51Z</time>
      </trkpt>
      <trkpt lat="43.50859" lon="3.06175">
        <ele>359.6704102</ele>
        <time>2010-11-07T08:08:55Z</time>
      </trkpt>
      <trkpt lat="43.50845" lon="3.06209">
        <ele>358.7089844</ele>
        <time>2010-11-07T08:08:59Z</time>
      </trkpt>
      <trkpt lat="43.50834" lon="3.06265">
        <ele>354.8637695</ele>
        <time>2010-11-07T08:09:04Z</time>
      </trkpt>
      <trkpt lat="43.50779" lon="3.06369">
        <ele>345.7313232</ele>
        <time>2010-11-07T08:09:15Z</time>
      </trkpt>
      <trkpt lat="43.50753" lon="3.0639">
        <ele>343.3278809</ele>
        <time>2010-11-07T08:09:19Z</time>
      </trkpt>
      <trkpt lat="43.50745" lon="3.06427">
        <ele>341.4052734</ele>
        <time>2010-11-07T08:09:25Z</time>
      </trkpt>
      <trkpt lat="43.50751" lon="3.06444">
        <ele>339.482666</ele>
        <time>2010-11-07T08:09:27Z</time>
      </trkpt>
      <trkpt lat="43.50758" lon="3.06464">
        <ele>337.5600586</ele>
        <time>2010-11-07T08:09:29Z</time>
      </trkpt>
      <trkpt lat="43.50736" lon="3.06539">
        <ele>328.4276123</ele>
        <time>2010-11-07T08:09:37Z</time>
      </trkpt>
      <trkpt lat="43.50731" lon="3.06549">
        <ele>326.5048828</ele>
        <time>2010-11-07T08:09:38Z</time>
      </trkpt>
      <trkpt lat="43.50712" lon="3.06573">
        <ele>324.5822754</ele>
        <time>2010-11-07T08:09:41Z</time>
      </trkpt>
      <trkpt lat="43.50689" lon="3.06579">
        <ele>320.2563477</ele>
        <time>2010-11-07T08:09:45Z</time>
      </trkpt>
      <trkpt lat="43.50674" lon="3.0658">
        <ele>319.2950439</ele>
        <time>2010-11-07T08:09:47Z</time>
      </trkpt>
      <trkpt lat="43.50654" lon="3.06613">
        <ele>316.8917236</ele>
        <time>2010-11-07T08:09:51Z</time>
      </trkpt>
      <trkpt lat="43.50649" lon="3.06636">
        <ele>315.4498291</ele>
        <time>2010-11-07T08:09:53Z</time>
      </trkpt>
      <trkpt lat="43.50644" lon="3.06665">
        <ele>312.0852051</ele>
        <time>2010-11-07T08:09:56Z</time>
      </trkpt>
      <trkpt lat="43.5065" lon="3.06668">
        <ele>303.9139404</ele>
        <time>2010-11-07T08:10:04Z</time>
      </trkpt>
      <trkpt lat="43.50651" lon="3.06666">
        <ele>303.4332275</ele>
        <time>2010-11-07T08:10:24Z</time>
      </trkpt>
      <trkpt lat="43.50657" lon="3.06645">
        <ele>301.991333</ele>
        <time>2010-11-07T08:10:31Z</time>
      </trkpt>
      <trkpt lat="43.50688" lon="3.06618">
        <ele>299.5880127</ele>
        <time>2010-11-07T08:10:40Z</time>
      </trkpt>
      <trkpt lat="43.5072" lon="3.06625">
        <ele>298.626709</ele>
        <time>2010-11-07T08:10:43Z</time>
      </trkpt>
      <trkpt lat="43.50787" lon="3.0662">
        <ele>293.3393555</ele>
        <time>2010-11-07T08:10:50Z</time>
      </trkpt>
      <trkpt lat="43.50808" lon="3.0661">
        <ele>291.8974609</ele>
        <time>2010-11-07T08:10:58Z</time>
      </trkpt>
      <trkpt lat="43.50808" lon="3.0661">
        <ele>290.9361572</ele>
        <time>2010-11-07T08:14:19Z</time>
      </trkpt>
      <trkpt lat="43.50807" lon="3.06611">
        <ele>291.416748</ele>
        <time>2010-11-07T08:14:30Z</time>
      </trkpt>
      <trkpt lat="43.50807" lon="3.06611">
        <ele>291.416748</ele>
        <time>2010-11-07T08:14:52Z</time>
      </trkpt>
      <trkpt lat="43.50807" lon="3.06611">
        <ele>291.8974609</ele>
        <time>2010-11-07T08:15:07Z</time>
      </trkpt>
      <trkpt lat="43.50807" lon="3.06611">
        <ele>291.416748</ele>
        <time>2010-11-07T08:15:25Z</time>
      </trkpt>
      <trkpt lat="43.50783" lon="3.06621">
        <ele>293.8200684</ele>
        <time>2010-11-07T08:15:37Z</time>
      </trkpt>
      <trkpt lat="43.50743" lon="3.0663">
        <ele>298.1461182</ele>
        <time>2010-11-07T08:15:49Z</time>
      </trkpt>
      <trkpt lat="43.50712" lon="3.06621">
        <ele>309.6818848</ele>
        <time>2010-11-07T08:16:02Z</time>
      </trkpt>
      <trkpt lat="43.507" lon="3.06618">
        <ele>316.8917236</ele>
        <time>2010-11-07T08:16:08Z</time>
      </trkpt>
      <trkpt lat="43.5067" lon="3.06627">
        <ele>322.659668</ele>
        <time>2010-11-07T08:16:19Z</time>
      </trkpt>
      <trkpt lat="43.50655" lon="3.06657">
        <ele>321.6983643</ele>
        <time>2010-11-07T08:16:27Z</time>
      </trkpt>
      <trkpt lat="43.50653" lon="3.06662">
        <ele>323.1403809</ele>
        <time>2010-11-07T08:16:31Z</time>
      </trkpt>
      <trkpt lat="43.50652" lon="3.06657">
        <ele>323.6209717</ele>
        <time>2010-11-07T08:16:34Z</time>
      </trkpt>
      <trkpt lat="43.50666" lon="3.06617">
        <ele>325.0629883</ele>
        <time>2010-11-07T08:16:49Z</time>
      </trkpt>
      <trkpt lat="43.50672" lon="3.066">
        <ele>327.9467773</ele>
        <time>2010-11-07T08:16:57Z</time>
      </trkpt>
      <trkpt lat="43.50701" lon="3.06594">
        <ele>330.8309326</ele>
        <time>2010-11-07T08:17:12Z</time>
      </trkpt>
      <trkpt lat="43.5073" lon="3.06559">
        <ele>325.0629883</ele>
        <time>2010-11-07T08:17:27Z</time>
      </trkpt>
      <trkpt lat="43.50758" lon="3.06506">
        <ele>323.6209717</ele>
        <time>2010-11-07T08:17:47Z</time>
      </trkpt>
      <trkpt lat="43.50756" lon="3.06455">
        <ele>325.5435791</ele>
        <time>2010-11-07T08:18:03Z</time>
      </trkpt>
      <trkpt lat="43.50743" lon="3.06413">
        <ele>326.5048828</ele>
        <time>2010-11-07T08:18:19Z</time>
      </trkpt>
      <trkpt lat="43.50746" lon="3.06398">
        <ele>328.9083252</ele>
        <time>2010-11-07T08:18:27Z</time>
      </trkpt>
      <trkpt lat="43.50775" lon="3.06375">
        <ele>329.388916</ele>
        <time>2010-11-07T08:18:41Z</time>
      </trkpt>
      <trkpt lat="43.50803" lon="3.06338">
        <ele>330.8309326</ele>
        <time>2010-11-07T08:18:57Z</time>
      </trkpt>
      <trkpt lat="43.50829" lon="3.06284">
        <ele>332.75354</ele>
        <time>2010-11-07T08:19:19Z</time>
      </trkpt>
      <trkpt lat="43.50843" lon="3.06231">
        <ele>336.1181641</ele>
        <time>2010-11-07T08:19:37Z</time>
      </trkpt>
      <trkpt lat="43.50851" lon="3.06185">
        <ele>338.5214844</ele>
        <time>2010-11-07T08:19:53Z</time>
      </trkpt>
      <trkpt lat="43.50877" lon="3.0616">
        <ele>343.8085938</ele>
        <time>2010-11-07T08:20:09Z</time>
      </trkpt>
      <trkpt lat="43.50884" lon="3.06153">
        <ele>344.7700195</ele>
        <time>2010-11-07T08:20:19Z</time>
      </trkpt>
      <trkpt lat="43.50883" lon="3.06155">
        <ele>349.0958252</ele>
        <time>2010-11-07T08:20:32Z</time>
      </trkpt>
      <trkpt lat="43.5088" lon="3.0616">
        <ele>349.0958252</ele>
        <time>2010-11-07T08:20:34Z</time>
      </trkpt>
      <trkpt lat="43.50866" lon="3.06169">
        <ele>349.5765381</ele>
        <time>2010-11-07T08:20:38Z</time>
      </trkpt>
      <trkpt lat="43.50846" lon="3.06207">
        <ele>349.0958252</ele>
        <time>2010-11-07T08:20:47Z</time>
      </trkpt>
      <trkpt lat="43.50841" lon="3.06229">
        <ele>348.1346436</ele>
        <time>2010-11-07T08:20:52Z</time>
      </trkpt>
      <trkpt lat="43.50869" lon="3.06239">
        <ele>347.6539307</ele>
        <time>2010-11-07T08:20:57Z</time>
      </trkpt>
      <trkpt lat="43.50875" lon="3.06236">
        <ele>347.1732178</ele>
        <time>2010-11-07T08:20:59Z</time>
      </trkpt>
      <trkpt lat="43.50879" lon="3.06268">
        <ele>344.7700195</ele>
        <time>2010-11-07T08:21:07Z</time>
      </trkpt>
      <trkpt lat="43.50876" lon="3.06313">
        <ele>341.4052734</ele>
        <time>2010-11-07T08:21:15Z</time>
      </trkpt>
      <trkpt lat="43.5082" lon="3.06304">
        <ele>339.482666</ele>
        <time>2010-11-07T08:21:19Z</time>
      </trkpt>
      <trkpt lat="43.50814" lon="3.06316">
        <ele>338.5214844</ele>
        <time>2010-11-07T08:21:21Z</time>
      </trkpt>
      <trkpt lat="43.50792" lon="3.0635">
        <ele>334.6761475</ele>
        <time>2010-11-07T08:21:28Z</time>
      </trkpt>
      <trkpt lat="43.50784" lon="3.06362">
        <ele>333.2341309</ele>
        <time>2010-11-07T08:21:31Z</time>
      </trkpt>
      <trkpt lat="43.50764" lon="3.06383">
        <ele>329.8695068</ele>
        <time>2010-11-07T08:21:39Z</time>
      </trkpt>
      <trkpt lat="43.5076" lon="3.06478">
        <ele>322.659668</ele>
        <time>2010-11-07T08:21:47Z</time>
      </trkpt>
      <trkpt lat="43.50756" lon="3.06495">
        <ele>319.2950439</ele>
        <time>2010-11-07T08:21:53Z</time>
      </trkpt>
      <trkpt lat="43.50814" lon="3.06603">
        <ele>314.4884033</ele>
        <time>2010-11-07T08:22:00Z</time>
      </trkpt>
      <trkpt lat="43.50801" lon="3.06614">
        <ele>308.720459</ele>
        <time>2010-11-07T08:22:07Z</time>
      </trkpt>
      <trkpt lat="43.50801" lon="3.06614">
        <ele>306.3172607</ele>
        <time>2010-11-07T08:23:32Z</time>
      </trkpt>
      <trkpt lat="43.50815" lon="3.06621">
        <ele>303.4332275</ele>
        <time>2010-11-07T08:23:39Z</time>
      </trkpt>
      <trkpt lat="43.50819" lon="3.06643">
        <ele>301.991333</ele>
        <time>2010-11-07T08:23:45Z</time>
      </trkpt>
      <trkpt lat="43.50825" lon="3.06649">
        <ele>300.0687256</ele>
        <time>2010-11-07T08:23:48Z</time>
      </trkpt>
      <trkpt lat="43.50828" lon="3.06677">
        <ele>295.2619629</ele>
        <time>2010-11-07T08:23:54Z</time>
      </trkpt>
      <trkpt lat="43.50828" lon="3.06699">
        <ele>292.3781738</ele>
        <time>2010-11-07T08:23:58Z</time>
      </trkpt>
      <trkpt lat="43.50838" lon="3.06729">
        <ele>289.4941406</ele>
        <time>2010-11-07T08:24:03Z</time>
      </trkpt>
      <trkpt lat="43.50843" lon="3.06754">
        <ele>283.2456055</ele>
        <time>2010-11-07T08:24:12Z</time>
      </trkpt>
      <trkpt lat="43.5085" lon="3.06815">
        <ele>283.2456055</ele>
        <time>2010-11-07T08:24:19Z</time>
      </trkpt>
      <trkpt lat="43.5085" lon="3.06815">
        <ele>273.1518555</ele>
        <time>2010-11-07T08:24:27Z</time>
      </trkpt>
      <trkpt lat="43.50866" lon="3.06901">
        <ele>268.3450928</ele>
        <time>2010-11-07T08:24:30Z</time>
      </trkpt>
      <trkpt lat="43.50862" lon="3.06936">
        <ele>260.654541</ele>
        <time>2010-11-07T08:24:36Z</time>
      </trkpt>
      <trkpt lat="43.5085" lon="3.07001">
        <ele>248.6381836</ele>
        <time>2010-11-07T08:24:47Z</time>
      </trkpt>
      <trkpt lat="43.5085" lon="3.07018">
        <ele>246.2348633</ele>
        <time>2010-11-07T08:24:54Z</time>
      </trkpt>
      <trkpt lat="43.50866" lon="3.07005">
        <ele>242.3896484</ele>
        <time>2010-11-07T08:25:01Z</time>
      </trkpt>
      <trkpt lat="43.50873" lon="3.0701">
        <ele>238.0635986</ele>
        <time>2010-11-07T08:25:06Z</time>
      </trkpt>
      <trkpt lat="43.50871" lon="3.0702">
        <ele>238.0635986</ele>
        <time>2010-11-07T08:25:09Z</time>
      </trkpt>
      <trkpt lat="43.50885" lon="3.0709">
        <ele>239.5054932</ele>
        <time>2010-11-07T08:25:18Z</time>
      </trkpt>
      <trkpt lat="43.50877" lon="3.07105">
        <ele>238.5443115</ele>
        <time>2010-11-07T08:25:21Z</time>
      </trkpt>
      <trkpt lat="43.50854" lon="3.07171">
        <ele>233.2570801</ele>
        <time>2010-11-07T08:25:31Z</time>
      </trkpt>
      <trkpt lat="43.5084" lon="3.07199">
        <ele>226.527832</ele>
        <time>2010-11-07T08:25:39Z</time>
      </trkpt>
      <trkpt lat="43.50807" lon="3.07201">
        <ele>225.0859375</ele>
        <time>2010-11-07T08:25:57Z</time>
      </trkpt>
      <trkpt lat="43.50807" lon="3.07201">
        <ele>225.5665283</ele>
        <time>2010-11-07T08:26:25Z</time>
      </trkpt>
      <trkpt lat="43.50807" lon="3.07201">
        <ele>225.5665283</ele>
        <time>2010-11-07T08:26:57Z</time>
      </trkpt>
      <trkpt lat="43.5083" lon="3.07219">
        <ele>224.1245117</ele>
        <time>2010-11-07T08:27:05Z</time>
      </trkpt>
      <trkpt lat="43.50817" lon="3.07248">
        <ele>222.6824951</ele>
        <time>2010-11-07T08:27:15Z</time>
      </trkpt>
      <trkpt lat="43.50816" lon="3.0725">
        <ele>222.6824951</ele>
        <time>2010-11-07T08:27:16Z</time>
      </trkpt>
      <trkpt lat="43.50812" lon="3.07264">
        <ele>220.7598877</ele>
        <time>2010-11-07T08:27:21Z</time>
      </trkpt>
      <trkpt lat="43.50803" lon="3.07307">
        <ele>216.9146729</ele>
        <time>2010-11-07T08:27:32Z</time>
      </trkpt>
      <trkpt lat="43.50801" lon="3.07316">
        <ele>214.9919434</ele>
        <time>2010-11-07T08:27:34Z</time>
      </trkpt>
      <trkpt lat="43.5079" lon="3.07355">
        <ele>211.6274414</ele>
        <time>2010-11-07T08:27:43Z</time>
      </trkpt>
      <trkpt lat="43.50841" lon="3.07405">
        <ele>205.8594971</ele>
        <time>2010-11-07T08:27:49Z</time>
      </trkpt>
      <trkpt lat="43.5084" lon="3.07417">
        <ele>202.494873</ele>
        <time>2010-11-07T08:27:53Z</time>
      </trkpt>
      <trkpt lat="43.5084" lon="3.07417">
        <ele>201.0528564</ele>
        <time>2010-11-07T08:27:55Z</time>
      </trkpt>
      <trkpt lat="43.5084" lon="3.07415">
        <ele>196.2463379</ele>
        <time>2010-11-07T08:28:00Z</time>
      </trkpt>
      <trkpt lat="43.50841" lon="3.0741">
        <ele>194.3237305</ele>
        <time>2010-11-07T08:28:02Z</time>
      </trkpt>
      <trkpt lat="43.50862" lon="3.07417">
        <ele>192.401123</ele>
        <time>2010-11-07T08:28:07Z</time>
      </trkpt>
      <trkpt lat="43.50839" lon="3.07428">
        <ele>190.9589844</ele>
        <time>2010-11-07T08:28:13Z</time>
      </trkpt>
      <trkpt lat="43.50839" lon="3.07469">
        <ele>189.5169678</ele>
        <time>2010-11-07T08:28:17Z</time>
      </trkpt>
      <trkpt lat="43.50843" lon="3.07484">
        <ele>189.036377</ele>
        <time>2010-11-07T08:28:19Z</time>
      </trkpt>
      <trkpt lat="43.50834" lon="3.07505">
        <ele>188.5557861</ele>
        <time>2010-11-07T08:28:23Z</time>
      </trkpt>
      <trkpt lat="43.50841" lon="3.07508">
        <ele>188.5557861</ele>
        <time>2010-11-07T08:28:30Z</time>
      </trkpt>
      <trkpt lat="43.50841" lon="3.07508">
        <ele>188.5557861</ele>
        <time>2010-11-07T08:28:35Z</time>
      </trkpt>
      <trkpt lat="43.50845" lon="3.07553">
        <ele>189.036377</ele>
        <time>2010-11-07T08:28:47Z</time>
      </trkpt>
      <trkpt lat="43.50859" lon="3.0759">
        <ele>187.1137695</ele>
        <time>2010-11-07T08:29:00Z</time>
      </trkpt>
      <trkpt lat="43.50859" lon="3.0759">
        <ele>189.5169678</ele>
        <time>2010-11-07T08:29:10Z</time>
      </trkpt>
      <trkpt lat="43.50859" lon="3.0759">
        <ele>182.7878418</ele>
        <time>2010-11-07T08:29:27Z</time>
      </trkpt>
      <trkpt lat="43.50859" lon="3.0759">
        <ele>183.2684326</ele>
        <time>2010-11-07T08:29:46Z</time>
      </trkpt>
      <trkpt lat="43.50859" lon="3.0759">
        <ele>182.7878418</ele>
        <time>2010-11-07T08:29:53Z</time>
      </trkpt>
      <trkpt lat="43.50891" lon="3.07623">
        <ele>182.3071289</ele>
        <time>2010-11-07T08:30:07Z</time>
      </trkpt>
      <trkpt lat="43.50896" lon="3.07627">
        <ele>182.3071289</ele>
        <time>2010-11-07T08:30:12Z</time>
      </trkpt>
      <trkpt lat="43.50896" lon="3.07627">
        <ele>181.826416</ele>
        <time>2010-11-07T08:30:16Z</time>
      </trkpt>
      <trkpt lat="43.50927" lon="3.07619">
        <ele>181.826416</ele>
        <time>2010-11-07T08:30:25Z</time>
      </trkpt>
      <trkpt lat="43.50934" lon="3.07616">
        <ele>181.826416</ele>
        <time>2010-11-07T08:30:29Z</time>
      </trkpt>
      <trkpt lat="43.50957" lon="3.07594">
        <ele>181.826416</ele>
        <time>2010-11-07T08:30:39Z</time>
      </trkpt>
      <trkpt lat="43.50957" lon="3.07594">
        <ele>181.826416</ele>
        <time>2010-11-07T08:30:51Z</time>
      </trkpt>
      <trkpt lat="43.50955" lon="3.07598">
        <ele>182.3071289</ele>
        <time>2010-11-07T08:30:55Z</time>
      </trkpt>
      <trkpt lat="43.50996" lon="3.07596">
        <ele>183.2684326</ele>
        <time>2010-11-07T08:31:07Z</time>
      </trkpt>
      <trkpt lat="43.50996" lon="3.07596">
        <ele>183.7490234</ele>
        <time>2010-11-07T08:31:09Z</time>
      </trkpt>
      <trkpt lat="43.51028" lon="3.07598">
        <ele>186.1524658</ele>
        <time>2010-11-07T08:31:22Z</time>
      </trkpt>
      <trkpt lat="43.51065" lon="3.07586">
        <ele>189.036377</ele>
        <time>2010-11-07T08:31:36Z</time>
      </trkpt>
      <trkpt lat="43.51081" lon="3.0758">
        <ele>192.401123</ele>
        <time>2010-11-07T08:31:46Z</time>
      </trkpt>
      <trkpt lat="43.51097" lon="3.07576">
        <ele>197.2075195</ele>
        <time>2010-11-07T08:31:54Z</time>
      </trkpt>
      <trkpt lat="43.51122" lon="3.07571">
        <ele>199.130127</ele>
        <time>2010-11-07T08:32:09Z</time>
      </trkpt>
      <trkpt lat="43.51142" lon="3.07569">
        <ele>202.9754639</ele>
        <time>2010-11-07T08:32:20Z</time>
      </trkpt>
      <trkpt lat="43.51165" lon="3.07566">
        <ele>205.8594971</ele>
        <time>2010-11-07T08:32:33Z</time>
      </trkpt>
      <trkpt lat="43.51202" lon="3.0756">
        <ele>202.9754639</ele>
        <time>2010-11-07T08:32:48Z</time>
      </trkpt>
      <trkpt lat="43.51228" lon="3.07569">
        <ele>199.130127</ele>
        <time>2010-11-07T08:33:02Z</time>
      </trkpt>
      <trkpt lat="43.51255" lon="3.07572">
        <ele>201.0528564</ele>
        <time>2010-11-07T08:33:16Z</time>
      </trkpt>
      <trkpt lat="43.51272" lon="3.0759">
        <ele>200.0916748</ele>
        <time>2010-11-07T08:33:29Z</time>
      </trkpt>
      <trkpt lat="43.51279" lon="3.0761">
        <ele>203.9368896</ele>
        <time>2010-11-07T08:33:39Z</time>
      </trkpt>
      <trkpt lat="43.51291" lon="3.07631">
        <ele>210.1854248</ele>
        <time>2010-11-07T08:33:52Z</time>
      </trkpt>
      <trkpt lat="43.51296" lon="3.0763">
        <ele>211.1467285</ele>
        <time>2010-11-07T08:33:56Z</time>
      </trkpt>
      <trkpt lat="43.51311" lon="3.07615">
        <ele>212.1080322</ele>
        <time>2010-11-07T08:34:06Z</time>
      </trkpt>
      <trkpt lat="43.51338" lon="3.07601">
        <ele>214.0306396</ele>
        <time>2010-11-07T08:34:20Z</time>
      </trkpt>
      <trkpt lat="43.51369" lon="3.07606">
        <ele>218.3565674</ele>
        <time>2010-11-07T08:34:36Z</time>
      </trkpt>
      <trkpt lat="43.51393" lon="3.07618">
        <ele>221.2406006</ele>
        <time>2010-11-07T08:34:50Z</time>
      </trkpt>
      <trkpt lat="43.51419" lon="3.07609">
        <ele>222.2017822</ele>
        <time>2010-11-07T08:35:04Z</time>
      </trkpt>
      <trkpt lat="43.51444" lon="3.07598">
        <ele>228.4504395</ele>
        <time>2010-11-07T08:35:21Z</time>
      </trkpt>
      <trkpt lat="43.51472" lon="3.07588">
        <ele>233.2570801</ele>
        <time>2010-11-07T08:35:37Z</time>
      </trkpt>
      <trkpt lat="43.51487" lon="3.07583">
        <ele>234.2183838</ele>
        <time>2010-11-07T08:35:44Z</time>
      </trkpt>
      <trkpt lat="43.5152" lon="3.07582">
        <ele>241.4282227</ele>
        <time>2010-11-07T08:36:03Z</time>
      </trkpt>
      <trkpt lat="43.5155" lon="3.07591">
        <ele>242.8702393</ele>
        <time>2010-11-07T08:36:17Z</time>
      </trkpt>
      <trkpt lat="43.5156" lon="3.07579">
        <ele>241.4282227</ele>
        <time>2010-11-07T08:36:25Z</time>
      </trkpt>
      <trkpt lat="43.51586" lon="3.07548">
        <ele>244.3122559</ele>
        <time>2010-11-07T08:36:42Z</time>
      </trkpt>
      <trkpt lat="43.51618" lon="3.07542">
        <ele>248.6381836</ele>
        <time>2010-11-07T08:36:59Z</time>
      </trkpt>
      <trkpt lat="43.51645" lon="3.07549">
        <ele>250.0802002</ele>
        <time>2010-11-07T08:37:13Z</time>
      </trkpt>
      <trkpt lat="43.51672" lon="3.07573">
        <ele>258.7319336</ele>
        <time>2010-11-07T08:37:31Z</time>
      </trkpt>
      <trkpt lat="43.51697" lon="3.07589">
        <ele>268.3450928</ele>
        <time>2010-11-07T08:37:45Z</time>
      </trkpt>
      <trkpt lat="43.51717" lon="3.07605">
        <ele>274.1130371</ele>
        <time>2010-11-07T08:37:59Z</time>
      </trkpt>
      <trkpt lat="43.51724" lon="3.07612">
        <ele>275.0744629</ele>
        <time>2010-11-07T08:38:03Z</time>
      </trkpt>
      <trkpt lat="43.51728" lon="3.07616">
        <ele>275.5550537</ele>
        <time>2010-11-07T08:38:06Z</time>
      </trkpt>
      <trkpt lat="43.51731" lon="3.07621">
        <ele>276.9970703</ele>
        <time>2010-11-07T08:38:09Z</time>
      </trkpt>
      <trkpt lat="43.51735" lon="3.07626">
        <ele>276.9970703</ele>
        <time>2010-11-07T08:38:12Z</time>
      </trkpt>
      <trkpt lat="43.51735" lon="3.07626">
        <ele>278.4389648</ele>
        <time>2010-11-07T08:38:14Z</time>
      </trkpt>
      <trkpt lat="43.5174" lon="3.07637">
        <ele>281.322998</ele>
        <time>2010-11-07T08:38:18Z</time>
      </trkpt>
      <trkpt lat="43.51753" lon="3.07663">
        <ele>284.2069092</ele>
        <time>2010-11-07T08:38:31Z</time>
      </trkpt>
      <trkpt lat="43.51769" lon="3.07697">
        <ele>280.8424072</ele>
        <time>2010-11-07T08:38:46Z</time>
      </trkpt>
      <trkpt lat="43.51776" lon="3.07707">
        <ele>285.1682129</ele>
        <time>2010-11-07T08:38:52Z</time>
      </trkpt>
      <trkpt lat="43.51787" lon="3.07721">
        <ele>291.416748</ele>
        <time>2010-11-07T08:39:05Z</time>
      </trkpt>
      <trkpt lat="43.51807" lon="3.07742">
        <ele>295.2619629</ele>
        <time>2010-11-07T08:39:16Z</time>
      </trkpt>
      <trkpt lat="43.51821" lon="3.07755">
        <ele>291.416748</ele>
        <time>2010-11-07T08:39:22Z</time>
      </trkpt>
      <trkpt lat="43.51837" lon="3.07776">
        <ele>291.8974609</ele>
        <time>2010-11-07T08:39:32Z</time>
      </trkpt>
      <trkpt lat="43.51837" lon="3.07776">
        <ele>297.6654053</ele>
        <time>2010-11-07T08:39:47Z</time>
      </trkpt>
      <trkpt lat="43.51837" lon="3.07776">
        <ele>301.0299072</ele>
        <time>2010-11-07T08:39:55Z</time>
      </trkpt>
      <trkpt lat="43.51879" lon="3.07805">
        <ele>306.7978516</ele>
        <time>2010-11-07T08:40:12Z</time>
      </trkpt>
      <trkpt lat="43.51924" lon="3.07821">
        <ele>294.3007813</ele>
        <time>2010-11-07T08:40:31Z</time>
      </trkpt>
      <trkpt lat="43.51946" lon="3.0784">
        <ele>294.7813721</ele>
        <time>2010-11-07T08:40:44Z</time>
      </trkpt>
      <trkpt lat="43.51975" lon="3.07831">
        <ele>296.2235107</ele>
        <time>2010-11-07T08:40:59Z</time>
      </trkpt>
      <trkpt lat="43.52023" lon="3.0781">
        <ele>292.3781738</ele>
        <time>2010-11-07T08:41:19Z</time>
      </trkpt>
      <trkpt lat="43.52061" lon="3.078">
        <ele>294.3007813</ele>
        <time>2010-11-07T08:41:38Z</time>
      </trkpt>
      <trkpt lat="43.52082" lon="3.07787">
        <ele>295.2619629</ele>
        <time>2010-11-07T08:41:51Z</time>
      </trkpt>
      <trkpt lat="43.52117" lon="3.0777">
        <ele>304.3946533</ele>
        <time>2010-11-07T08:42:08Z</time>
      </trkpt>
      <trkpt lat="43.52156" lon="3.07774">
        <ele>307.7592773</ele>
        <time>2010-11-07T08:42:29Z</time>
      </trkpt>
      <trkpt lat="43.52158" lon="3.07775">
        <ele>306.7978516</ele>
        <time>2010-11-07T08:42:30Z</time>
      </trkpt>
      <trkpt lat="43.52158" lon="3.07775">
        <ele>307.2785645</ele>
        <time>2010-11-07T08:42:33Z</time>
      </trkpt>
      <trkpt lat="43.52158" lon="3.07775">
        <ele>306.7978516</ele>
        <time>2010-11-07T08:42:50Z</time>
      </trkpt>
      <trkpt lat="43.52158" lon="3.07775">
        <ele>307.2785645</ele>
        <time>2010-11-07T08:43:51Z</time>
      </trkpt>
      <trkpt lat="43.52158" lon="3.07775">
        <ele>308.2398682</ele>
        <time>2010-11-07T08:44:21Z</time>
      </trkpt>
      <trkpt lat="43.52158" lon="3.07775">
        <ele>308.2398682</ele>
        <time>2010-11-07T08:45:03Z</time>
      </trkpt>
      <trkpt lat="43.52177" lon="3.07781">
        <ele>308.2398682</ele>
        <time>2010-11-07T08:45:06Z</time>
      </trkpt>
      <trkpt lat="43.52212" lon="3.07794">
        <ele>309.2011719</ele>
        <time>2010-11-07T08:45:25Z</time>
      </trkpt>
      <trkpt lat="43.52244" lon="3.07801">
        <ele>310.6430664</ele>
        <time>2010-11-07T08:45:43Z</time>
      </trkpt>
      <trkpt lat="43.5228" lon="3.07812">
        <ele>315.4498291</ele>
        <time>2010-11-07T08:45:57Z</time>
      </trkpt>
      <trkpt lat="43.52317" lon="3.07809">
        <ele>322.1789551</ele>
        <time>2010-11-07T08:46:11Z</time>
      </trkpt>
      <trkpt lat="43.52356" lon="3.07802">
        <ele>327.9467773</ele>
        <time>2010-11-07T08:46:28Z</time>
      </trkpt>
      <trkpt lat="43.52391" lon="3.07788">
        <ele>332.2728271</ele>
        <time>2010-11-07T08:46:40Z</time>
      </trkpt>
      <trkpt lat="43.52428" lon="3.07778">
        <ele>334.1954346</ele>
        <time>2010-11-07T08:46:53Z</time>
      </trkpt>
      <trkpt lat="43.52463" lon="3.07784">
        <ele>339.0020752</ele>
        <time>2010-11-07T08:47:09Z</time>
      </trkpt>
      <trkpt lat="43.52495" lon="3.07786">
        <ele>344.2894287</ele>
        <time>2010-11-07T08:47:26Z</time>
      </trkpt>
      <trkpt lat="43.52529" lon="3.07756">
        <ele>345.7313232</ele>
        <time>2010-11-07T08:47:44Z</time>
      </trkpt>
      <trkpt lat="43.52534" lon="3.0771">
        <ele>345.2506104</ele>
        <time>2010-11-07T08:47:59Z</time>
      </trkpt>
      <trkpt lat="43.52536" lon="3.07664">
        <ele>345.2506104</ele>
        <time>2010-11-07T08:48:12Z</time>
      </trkpt>
      <trkpt lat="43.52562" lon="3.0763">
        <ele>347.6539307</ele>
        <time>2010-11-07T08:48:26Z</time>
      </trkpt>
      <trkpt lat="43.52598" lon="3.07601">
        <ele>355.8251953</ele>
        <time>2010-11-07T08:48:43Z</time>
      </trkpt>
      <trkpt lat="43.52631" lon="3.07574">
        <ele>362.0737305</ele>
        <time>2010-11-07T08:48:59Z</time>
      </trkpt>
      <trkpt lat="43.5266" lon="3.07548">
        <ele>362.5543213</ele>
        <time>2010-11-07T08:49:12Z</time>
      </trkpt>
      <trkpt lat="43.52661" lon="3.07516">
        <ele>360.6317139</ele>
        <time>2010-11-07T08:49:23Z</time>
      </trkpt>
      <trkpt lat="43.52639" lon="3.07462">
        <ele>356.786377</ele>
        <time>2010-11-07T08:49:39Z</time>
      </trkpt>
      <trkpt lat="43.52635" lon="3.07411">
        <ele>356.786377</ele>
        <time>2010-11-07T08:49:52Z</time>
      </trkpt>
      <trkpt lat="43.52664" lon="3.07389">
        <ele>366.880249</ele>
        <time>2010-11-07T08:50:05Z</time>
      </trkpt>
      <trkpt lat="43.52701" lon="3.07393">
        <ele>380.3387451</ele>
        <time>2010-11-07T08:50:21Z</time>
      </trkpt>
      <trkpt lat="43.52735" lon="3.074">
        <ele>388.5100098</ele>
        <time>2010-11-07T08:50:36Z</time>
      </trkpt>
      <trkpt lat="43.52789" lon="3.07414">
        <ele>386.5874023</ele>
        <time>2010-11-07T08:50:58Z</time>
      </trkpt>
      <trkpt lat="43.5282" lon="3.07404">
        <ele>385.6259766</ele>
        <time>2010-11-07T08:51:12Z</time>
      </trkpt>
      <trkpt lat="43.52828" lon="3.07371">
        <ele>384.184082</ele>
        <time>2010-11-07T08:51:23Z</time>
      </trkpt>
      <trkpt lat="43.52815" lon="3.07311">
        <ele>385.1453857</ele>
        <time>2010-11-07T08:51:39Z</time>
      </trkpt>
      <trkpt lat="43.52826" lon="3.07267">
        <ele>381.7806396</ele>
        <time>2010-11-07T08:51:51Z</time>
      </trkpt>
      <trkpt lat="43.52866" lon="3.07243">
        <ele>385.1453857</ele>
        <time>2010-11-07T08:52:07Z</time>
      </trkpt>
      <trkpt lat="43.52914" lon="3.07227">
        <ele>387.548584</ele>
        <time>2010-11-07T08:52:25Z</time>
      </trkpt>
      <trkpt lat="43.52951" lon="3.07211">
        <ele>388.9906006</ele>
        <time>2010-11-07T08:52:41Z</time>
      </trkpt>
      <trkpt lat="43.52996" lon="3.07197">
        <ele>393.3165283</ele>
        <time>2010-11-07T08:52:59Z</time>
      </trkpt>
      <trkpt lat="43.5302" lon="3.07179">
        <ele>397.1617432</ele>
        <time>2010-11-07T08:53:11Z</time>
      </trkpt>
      <trkpt lat="43.53021" lon="3.07174">
        <ele>398.1231689</ele>
        <time>2010-11-07T08:53:12Z</time>
      </trkpt>
      <trkpt lat="43.53036" lon="3.07135">
        <ele>406.7749023</ele>
        <time>2010-11-07T08:53:26Z</time>
      </trkpt>
      <trkpt lat="43.53042" lon="3.07128">
        <ele>404.8522949</ele>
        <time>2010-11-07T08:53:29Z</time>
      </trkpt>
      <trkpt lat="43.53046" lon="3.07116">
        <ele>406.2943115</ele>
        <time>2010-11-07T08:53:33Z</time>
      </trkpt>
      <trkpt lat="43.53021" lon="3.07084">
        <ele>406.7749023</ele>
        <time>2010-11-07T08:53:46Z</time>
      </trkpt>
      <trkpt lat="43.53036" lon="3.07039">
        <ele>410.6202393</ele>
        <time>2010-11-07T08:54:00Z</time>
      </trkpt>
      <trkpt lat="43.5307" lon="3.06998">
        <ele>411.1009521</ele>
        <time>2010-11-07T08:54:16Z</time>
      </trkpt>
      <trkpt lat="43.53103" lon="3.06967">
        <ele>411.581665</ele>
        <time>2010-11-07T08:54:31Z</time>
      </trkpt>
      <trkpt lat="43.5311" lon="3.06926">
        <ele>419.7528076</ele>
        <time>2010-11-07T08:54:43Z</time>
      </trkpt>
      <trkpt lat="43.53139" lon="3.06875">
        <ele>422.1560059</ele>
        <time>2010-11-07T08:55:00Z</time>
      </trkpt>
      <trkpt lat="43.53166" lon="3.06834">
        <ele>423.1174316</ele>
        <time>2010-11-07T08:55:16Z</time>
      </trkpt>
      <trkpt lat="43.53198" lon="3.06796">
        <ele>431.769165</ele>
        <time>2010-11-07T08:55:33Z</time>
      </trkpt>
      <trkpt lat="43.53224" lon="3.0677">
        <ele>434.1726074</ele>
        <time>2010-11-07T08:55:46Z</time>
      </trkpt>
      <trkpt lat="43.53221" lon="3.0673">
        <ele>428.885376</ele>
        <time>2010-11-07T08:56:00Z</time>
      </trkpt>
      <trkpt lat="43.53203" lon="3.06712">
        <ele>426.0013428</ele>
        <time>2010-11-07T08:56:10Z</time>
      </trkpt>
      <trkpt lat="43.53166" lon="3.06728">
        <ele>426.9627686</ele>
        <time>2010-11-07T08:56:25Z</time>
      </trkpt>
      <trkpt lat="43.53119" lon="3.06738">
        <ele>430.3272705</ele>
        <time>2010-11-07T08:56:39Z</time>
      </trkpt>
      <trkpt lat="43.53069" lon="3.06742">
        <ele>434.1726074</ele>
        <time>2010-11-07T08:56:54Z</time>
      </trkpt>
      <trkpt lat="43.5302" lon="3.06743">
        <ele>438.4985352</ele>
        <time>2010-11-07T08:57:10Z</time>
      </trkpt>
      <trkpt lat="43.52968" lon="3.0674">
        <ele>439.9404297</ele>
        <time>2010-11-07T08:57:24Z</time>
      </trkpt>
      <trkpt lat="43.52942" lon="3.06708">
        <ele>439.9404297</ele>
        <time>2010-11-07T08:57:34Z</time>
      </trkpt>
      <trkpt lat="43.52942" lon="3.06708">
        <ele>440.9018555</ele>
        <time>2010-11-07T08:58:15Z</time>
      </trkpt>
      <trkpt lat="43.52942" lon="3.06708">
        <ele>439.4597168</ele>
        <time>2010-11-07T09:01:21Z</time>
      </trkpt>
      <trkpt lat="43.52942" lon="3.06708">
        <ele>440.9018555</ele>
        <time>2010-11-07T09:07:19Z</time>
      </trkpt>
      <trkpt lat="43.52942" lon="3.067">
        <ele>441.3824463</ele>
        <time>2010-11-07T09:07:23Z</time>
      </trkpt>
      <trkpt lat="43.52951" lon="3.06701">
        <ele>441.8631592</ele>
        <time>2010-11-07T09:07:29Z</time>
      </trkpt>
      <trkpt lat="43.52954" lon="3.0671">
        <ele>442.8244629</ele>
        <time>2010-11-07T09:07:33Z</time>
      </trkpt>
      <trkpt lat="43.52985" lon="3.06725">
        <ele>446.6696777</ele>
        <time>2010-11-07T09:07:49Z</time>
      </trkpt>
      <trkpt lat="43.53013" lon="3.06723">
        <ele>450.5150146</ele>
        <time>2010-11-07T09:08:04Z</time>
      </trkpt>
      <trkpt lat="43.53044" lon="3.06718">
        <ele>456.7635498</ele>
        <time>2010-11-07T09:08:21Z</time>
      </trkpt>
      <trkpt lat="43.53063" lon="3.06713">
        <ele>455.3215332</ele>
        <time>2010-11-07T09:08:32Z</time>
      </trkpt>
      <trkpt lat="43.53063" lon="3.06701">
        <ele>453.8796387</ele>
        <time>2010-11-07T09:08:41Z</time>
      </trkpt>
      <trkpt lat="43.53026" lon="3.06694">
        <ele>453.8796387</ele>
        <time>2010-11-07T09:08:59Z</time>
      </trkpt>
      <trkpt lat="43.53018" lon="3.06678">
        <ele>453.3989258</ele>
        <time>2010-11-07T09:09:05Z</time>
      </trkpt>
      <trkpt lat="43.53029" lon="3.0663">
        <ele>459.1668701</ele>
        <time>2010-11-07T09:09:24Z</time>
      </trkpt>
      <trkpt lat="43.5304" lon="3.06602">
        <ele>465.4155273</ele>
        <time>2010-11-07T09:09:36Z</time>
      </trkpt>
      <trkpt lat="43.53045" lon="3.06546">
        <ele>473.5866699</ele>
        <time>2010-11-07T09:09:56Z</time>
      </trkpt>
      <trkpt lat="43.53052" lon="3.06521">
        <ele>472.6253662</ele>
        <time>2010-11-07T09:10:04Z</time>
      </trkpt>
      <trkpt lat="43.53071" lon="3.06485">
        <ele>475.9898682</ele>
        <time>2010-11-07T09:10:20Z</time>
      </trkpt>
      <trkpt lat="43.53094" lon="3.06458">
        <ele>483.1998291</ele>
        <time>2010-11-07T09:10:34Z</time>
      </trkpt>
      <trkpt lat="43.53124" lon="3.06427">
        <ele>488.0064697</ele>
        <time>2010-11-07T09:10:50Z</time>
      </trkpt>
      <trkpt lat="43.5315" lon="3.06397">
        <ele>492.8129883</ele>
        <time>2010-11-07T09:11:07Z</time>
      </trkpt>
      <trkpt lat="43.53152" lon="3.06395">
        <ele>493.2935791</ele>
        <time>2010-11-07T09:11:08Z</time>
      </trkpt>
      <trkpt lat="43.53155" lon="3.06355">
        <ele>477.9124756</ele>
        <time>2010-11-07T09:11:22Z</time>
      </trkpt>
      <trkpt lat="43.53148" lon="3.06298">
        <ele>470.2219238</ele>
        <time>2010-11-07T09:11:39Z</time>
      </trkpt>
      <trkpt lat="43.53159" lon="3.06262">
        <ele>472.1446533</ele>
        <time>2010-11-07T09:11:53Z</time>
      </trkpt>
      <trkpt lat="43.53177" lon="3.0623">
        <ele>478.8739014</ele>
        <time>2010-11-07T09:12:07Z</time>
      </trkpt>
      <trkpt lat="43.53205" lon="3.06197">
        <ele>488.0064697</ele>
        <time>2010-11-07T09:12:23Z</time>
      </trkpt>
      <trkpt lat="43.53241" lon="3.06178">
        <ele>493.2935791</ele>
        <time>2010-11-07T09:12:41Z</time>
      </trkpt>
      <trkpt lat="43.53248" lon="3.06141">
        <ele>499.0615234</ele>
        <time>2010-11-07T09:12:53Z</time>
      </trkpt>
      <trkpt lat="43.53256" lon="3.06087">
        <ele>488.0064697</ele>
        <time>2010-11-07T09:13:09Z</time>
      </trkpt>
      <trkpt lat="43.53245" lon="3.06052">
        <ele>485.6030273</ele>
        <time>2010-11-07T09:13:22Z</time>
      </trkpt>
      <trkpt lat="43.53241" lon="3.06047">
        <ele>486.0837402</ele>
        <time>2010-11-07T09:13:24Z</time>
      </trkpt>
      <trkpt lat="43.53243" lon="3.06034">
        <ele>485.1224365</ele>
        <time>2010-11-07T09:13:30Z</time>
      </trkpt>
      <trkpt lat="43.53267" lon="3.06024">
        <ele>488.0064697</ele>
        <time>2010-11-07T09:13:44Z</time>
      </trkpt>
      <trkpt lat="43.5328" lon="3.06009">
        <ele>489.9290771</ele>
        <time>2010-11-07T09:13:53Z</time>
      </trkpt>
      <trkpt lat="43.53282" lon="3.06007">
        <ele>491.3709717</ele>
        <time>2010-11-07T09:13:59Z</time>
      </trkpt>
      <trkpt lat="43.53312" lon="3.06001">
        <ele>499.0615234</ele>
        <time>2010-11-07T09:14:16Z</time>
      </trkpt>
      <trkpt lat="43.53318" lon="3.06005">
        <ele>502.4261475</ele>
        <time>2010-11-07T09:14:21Z</time>
      </trkpt>
      <trkpt lat="43.5332" lon="3.06008">
        <ele>502.9067383</ele>
        <time>2010-11-07T09:14:28Z</time>
      </trkpt>
      <trkpt lat="43.53319" lon="3.06005">
        <ele>505.3101807</ele>
        <time>2010-11-07T09:14:38Z</time>
      </trkpt>
      <trkpt lat="43.53314" lon="3.06001">
        <ele>506.7520752</ele>
        <time>2010-11-07T09:14:43Z</time>
      </trkpt>
      <trkpt lat="43.53329" lon="3.05987">
        <ele>509.6361084</ele>
        <time>2010-11-07T09:14:51Z</time>
      </trkpt>
      <trkpt lat="43.53334" lon="3.05983">
        <ele>514.9233398</ele>
        <time>2010-11-07T09:15:03Z</time>
      </trkpt>
      <trkpt lat="43.53367" lon="3.05978">
        <ele>517.807251</ele>
        <time>2010-11-07T09:15:20Z</time>
      </trkpt>
      <trkpt lat="43.53381" lon="3.05977">
        <ele>516.8459473</ele>
        <time>2010-11-07T09:15:25Z</time>
      </trkpt>
      <trkpt lat="43.53387" lon="3.05978">
        <ele>516.8459473</ele>
        <time>2010-11-07T09:15:30Z</time>
      </trkpt>
      <trkpt lat="43.53402" lon="3.05962">
        <ele>516.8459473</ele>
        <time>2010-11-07T09:15:37Z</time>
      </trkpt>
      <trkpt lat="43.53429" lon="3.05962">
        <ele>515.8846436</ele>
        <time>2010-11-07T09:15:50Z</time>
      </trkpt>
      <trkpt lat="43.53433" lon="3.05963">
        <ele>513.4814453</ele>
        <time>2010-11-07T09:15:52Z</time>
      </trkpt>
      <trkpt lat="43.53444" lon="3.05964">
        <ele>511.5587158</ele>
        <time>2010-11-07T09:16:06Z</time>
      </trkpt>
      <trkpt lat="43.53444" lon="3.0596">
        <ele>510.59729</ele>
        <time>2010-11-07T09:17:17Z</time>
      </trkpt>
      <trkpt lat="43.53426" lon="3.0594">
        <ele>505.7908936</ele>
        <time>2010-11-07T09:17:28Z</time>
      </trkpt>
      <trkpt lat="43.53424" lon="3.05938">
        <ele>505.3101807</ele>
        <time>2010-11-07T09:17:29Z</time>
      </trkpt>
      <trkpt lat="43.53411" lon="3.0593">
        <ele>501.9455566</ele>
        <time>2010-11-07T09:17:36Z</time>
      </trkpt>
      <trkpt lat="43.53379" lon="3.05899">
        <ele>497.138916</ele>
        <time>2010-11-07T09:17:47Z</time>
      </trkpt>
      <trkpt lat="43.53373" lon="3.05894">
        <ele>496.1777344</ele>
        <time>2010-11-07T09:17:49Z</time>
      </trkpt>
      <trkpt lat="43.53363" lon="3.05887">
        <ele>493.2935791</ele>
        <time>2010-11-07T09:17:53Z</time>
      </trkpt>
      <trkpt lat="43.53356" lon="3.05883">
        <ele>491.3709717</ele>
        <time>2010-11-07T09:17:59Z</time>
      </trkpt>
      <trkpt lat="43.53353" lon="3.05869">
        <ele>488.4871826</ele>
        <time>2010-11-07T09:18:05Z</time>
      </trkpt>
      <trkpt lat="43.53362" lon="3.05852">
        <ele>486.0837402</ele>
        <time>2010-11-07T09:18:11Z</time>
      </trkpt>
      <trkpt lat="43.53366" lon="3.0584">
        <ele>484.1611328</ele>
        <time>2010-11-07T09:18:16Z</time>
      </trkpt>
      <trkpt lat="43.53404" lon="3.05826">
        <ele>476.9512939</ele>
        <time>2010-11-07T09:18:29Z</time>
      </trkpt>
      <trkpt lat="43.53408" lon="3.05789">
        <ele>480.315918</ele>
        <time>2010-11-07T09:18:40Z</time>
      </trkpt>
      <trkpt lat="43.53408" lon="3.05742">
        <ele>481.2772217</ele>
        <time>2010-11-07T09:18:52Z</time>
      </trkpt>
      <trkpt lat="43.53409" lon="3.05706">
        <ele>483.1998291</ele>
        <time>2010-11-07T09:19:02Z</time>
      </trkpt>
      <trkpt lat="43.53409" lon="3.05658">
        <ele>480.7966309</ele>
        <time>2010-11-07T09:19:12Z</time>
      </trkpt>
      <trkpt lat="43.5342" lon="3.05622">
        <ele>471.1833496</ele>
        <time>2010-11-07T09:19:21Z</time>
      </trkpt>
      <trkpt lat="43.53424" lon="3.0559">
        <ele>465.4155273</ele>
        <time>2010-11-07T09:19:31Z</time>
      </trkpt>
      <trkpt lat="43.53424" lon="3.05588">
        <ele>464.9348145</ele>
        <time>2010-11-07T09:19:32Z</time>
      </trkpt>
      <trkpt lat="43.53402" lon="3.05605">
        <ele>450.0344238</ele>
        <time>2010-11-07T09:19:43Z</time>
      </trkpt>
      <trkpt lat="43.53398" lon="3.05619">
        <ele>440.9018555</ele>
        <time>2010-11-07T09:19:51Z</time>
      </trkpt>
      <trkpt lat="43.53395" lon="3.05619">
        <ele>440.4212646</ele>
        <time>2010-11-07T09:19:53Z</time>
      </trkpt>
      <trkpt lat="43.534" lon="3.05576">
        <ele>429.3659668</ele>
        <time>2010-11-07T09:20:03Z</time>
      </trkpt>
      <trkpt lat="43.53402" lon="3.05561">
        <ele>424.0787354</ele>
        <time>2010-11-07T09:20:13Z</time>
      </trkpt>
      <trkpt lat="43.53393" lon="3.05567">
        <ele>421.675415</ele>
        <time>2010-11-07T09:20:17Z</time>
      </trkpt>
      <trkpt lat="43.53384" lon="3.05571">
        <ele>419.2722168</ele>
        <time>2010-11-07T09:20:28Z</time>
      </trkpt>
      <trkpt lat="43.53383" lon="3.05567">
        <ele>418.310791</ele>
        <time>2010-11-07T09:20:31Z</time>
      </trkpt>
      <trkpt lat="43.53385" lon="3.05526">
        <ele>415.9074707</ele>
        <time>2010-11-07T09:20:40Z</time>
      </trkpt>
      <trkpt lat="43.53396" lon="3.05503">
        <ele>413.9848633</ele>
        <time>2010-11-07T09:20:47Z</time>
      </trkpt>
      <trkpt lat="43.53386" lon="3.05506">
        <ele>412.5428467</ele>
        <time>2010-11-07T09:20:52Z</time>
      </trkpt>
      <trkpt lat="43.53351" lon="3.05532">
        <ele>410.6202393</ele>
        <time>2010-11-07T09:21:04Z</time>
      </trkpt>
      <trkpt lat="43.53328" lon="3.05577">
        <ele>406.2943115</ele>
        <time>2010-11-07T09:21:14Z</time>
      </trkpt>
      <trkpt lat="43.53325" lon="3.0558">
        <ele>404.8522949</ele>
        <time>2010-11-07T09:21:15Z</time>
      </trkpt>
      <trkpt lat="43.53312" lon="3.05584">
        <ele>399.0843506</ele>
        <time>2010-11-07T09:21:26Z</time>
      </trkpt>
      <trkpt lat="43.53304" lon="3.05588">
        <ele>398.6037598</ele>
        <time>2010-11-07T09:21:55Z</time>
      </trkpt>
      <trkpt lat="43.53301" lon="3.05586">
        <ele>398.6037598</ele>
        <time>2010-11-07T09:22:01Z</time>
      </trkpt>
      <trkpt lat="43.53263" lon="3.05565">
        <ele>400.0458984</ele>
        <time>2010-11-07T09:22:11Z</time>
      </trkpt>
      <trkpt lat="43.53226" lon="3.05551">
        <ele>398.1231689</ele>
        <time>2010-11-07T09:22:21Z</time>
      </trkpt>
      <trkpt lat="43.53212" lon="3.05537">
        <ele>389.4711914</ele>
        <time>2010-11-07T09:22:29Z</time>
      </trkpt>
      <trkpt lat="43.5323" lon="3.05509">
        <ele>382.7420654</ele>
        <time>2010-11-07T09:22:39Z</time>
      </trkpt>
      <trkpt lat="43.5323" lon="3.05509">
        <ele>382.2613525</ele>
        <time>2010-11-07T09:22:40Z</time>
      </trkpt>
      <trkpt lat="43.53208" lon="3.05521">
        <ele>379.8580322</ele>
        <time>2010-11-07T09:22:50Z</time>
      </trkpt>
      <trkpt lat="43.53197" lon="3.05518">
        <ele>379.8580322</ele>
        <time>2010-11-07T09:22:55Z</time>
      </trkpt>
      <trkpt lat="43.53175" lon="3.05499">
        <ele>379.3774414</ele>
        <time>2010-11-07T09:23:03Z</time>
      </trkpt>
      <trkpt lat="43.53169" lon="3.05497">
        <ele>377.9354248</ele>
        <time>2010-11-07T09:23:06Z</time>
      </trkpt>
      <trkpt lat="43.53158" lon="3.05489">
        <ele>378.4161377</ele>
        <time>2010-11-07T09:23:11Z</time>
      </trkpt>
      <trkpt lat="43.53145" lon="3.0547">
        <ele>376.9742432</ele>
        <time>2010-11-07T09:23:22Z</time>
      </trkpt>
      <trkpt lat="43.53141" lon="3.05462">
        <ele>376.4935303</ele>
        <time>2010-11-07T09:26:20Z</time>
      </trkpt>
      <trkpt lat="43.53124" lon="3.05419">
        <ele>375.0515137</ele>
        <time>2010-11-07T09:26:30Z</time>
      </trkpt>
      <trkpt lat="43.53122" lon="3.05417">
        <ele>375.0515137</ele>
        <time>2010-11-07T09:26:31Z</time>
      </trkpt>
      <trkpt lat="43.5312" lon="3.05416">
        <ele>374.5708008</ele>
        <time>2010-11-07T09:26:34Z</time>
      </trkpt>
      <trkpt lat="43.53104" lon="3.05397">
        <ele>374.0900879</ele>
        <time>2010-11-07T09:26:45Z</time>
      </trkpt>
      <trkpt lat="43.53102" lon="3.0539">
        <ele>374.0900879</ele>
        <time>2010-11-07T09:26:50Z</time>
      </trkpt>
      <trkpt lat="43.53095" lon="3.05379">
        <ele>374.0900879</ele>
        <time>2010-11-07T09:26:59Z</time>
      </trkpt>
      <trkpt lat="43.53081" lon="3.05368">
        <ele>374.0900879</ele>
        <time>2010-11-07T09:27:03Z</time>
      </trkpt>
      <trkpt lat="43.53078" lon="3.05338">
        <ele>374.0900879</ele>
        <time>2010-11-07T09:27:07Z</time>
      </trkpt>
      <trkpt lat="43.53064" lon="3.05323">
        <ele>373.6094971</ele>
        <time>2010-11-07T09:27:11Z</time>
      </trkpt>
      <trkpt lat="43.53057" lon="3.05308">
        <ele>373.6094971</ele>
        <time>2010-11-07T09:27:14Z</time>
      </trkpt>
      <trkpt lat="43.53045" lon="3.05289">
        <ele>372.1674805</ele>
        <time>2010-11-07T09:27:19Z</time>
      </trkpt>
      <trkpt lat="43.5304" lon="3.05283">
        <ele>370.7255859</ele>
        <time>2010-11-07T09:27:27Z</time>
      </trkpt>
      <trkpt lat="43.5304" lon="3.05283">
        <ele>370.7255859</ele>
        <time>2010-11-07T09:28:04Z</time>
      </trkpt>
      <trkpt lat="43.53013" lon="3.05244">
        <ele>369.2836914</ele>
        <time>2010-11-07T09:28:15Z</time>
      </trkpt>
      <trkpt lat="43.5301" lon="3.05243">
        <ele>368.3222656</ele>
        <time>2010-11-07T09:28:16Z</time>
      </trkpt>
      <trkpt lat="43.52992" lon="3.05245">
        <ele>367.3609619</ele>
        <time>2010-11-07T09:28:20Z</time>
      </trkpt>
      <trkpt lat="43.52982" lon="3.0525">
        <ele>366.880249</ele>
        <time>2010-11-07T09:28:23Z</time>
      </trkpt>
      <trkpt lat="43.52957" lon="3.05259">
        <ele>366.3995361</ele>
        <time>2010-11-07T09:28:28Z</time>
      </trkpt>
      <trkpt lat="43.52922" lon="3.05239">
        <ele>364.9576416</ele>
        <time>2010-11-07T09:28:36Z</time>
      </trkpt>
      <trkpt lat="43.52908" lon="3.05227">
        <ele>364.4769287</ele>
        <time>2010-11-07T09:28:38Z</time>
      </trkpt>
      <trkpt lat="43.52876" lon="3.05213">
        <ele>363.0350342</ele>
        <time>2010-11-07T09:28:42Z</time>
      </trkpt>
      <trkpt lat="43.52856" lon="3.05201">
        <ele>362.5543213</ele>
        <time>2010-11-07T09:28:46Z</time>
      </trkpt>
      <trkpt lat="43.52843" lon="3.05182">
        <ele>363.0350342</ele>
        <time>2010-11-07T09:28:50Z</time>
      </trkpt>
      <trkpt lat="43.52811" lon="3.05097">
        <ele>358.7089844</ele>
        <time>2010-11-07T09:29:04Z</time>
      </trkpt>
      <trkpt lat="43.52784" lon="3.05004">
        <ele>353.9025879</ele>
        <time>2010-11-07T09:29:15Z</time>
      </trkpt>
      <trkpt lat="43.52752" lon="3.04902">
        <ele>347.6539307</ele>
        <time>2010-11-07T09:29:27Z</time>
      </trkpt>
      <trkpt lat="43.52719" lon="3.04792">
        <ele>340.9246826</ele>
        <time>2010-11-07T09:29:39Z</time>
      </trkpt>
      <trkpt lat="43.52708" lon="3.04763">
        <ele>339.482666</ele>
        <time>2010-11-07T09:29:43Z</time>
      </trkpt>
      <trkpt lat="43.52685" lon="3.04731">
        <ele>337.5600586</ele>
        <time>2010-11-07T09:29:51Z</time>
      </trkpt>
      <trkpt lat="43.52667" lon="3.04688">
        <ele>337.0794678</ele>
        <time>2010-11-07T09:30:02Z</time>
      </trkpt>
      <trkpt lat="43.52634" lon="3.04607">
        <ele>335.6373291</ele>
        <time>2010-11-07T09:30:22Z</time>
      </trkpt>
      <trkpt lat="43.52588" lon="3.04564">
        <ele>334.6761475</ele>
        <time>2010-11-07T09:30:37Z</time>
      </trkpt>
      <trkpt lat="43.52565" lon="3.04527">
        <ele>335.6373291</ele>
        <time>2010-11-07T09:30:49Z</time>
      </trkpt>
      <trkpt lat="43.52554" lon="3.04464">
        <ele>335.6373291</ele>
        <time>2010-11-07T09:31:05Z</time>
      </trkpt>
      <trkpt lat="43.52551" lon="3.04405">
        <ele>333.2341309</ele>
        <time>2010-11-07T09:31:19Z</time>
      </trkpt>
      <trkpt lat="43.52549" lon="3.04337">
        <ele>329.8695068</ele>
        <time>2010-11-07T09:31:34Z</time>
      </trkpt>
      <trkpt lat="43.52556" lon="3.04313">
        <ele>331.3115234</ele>
        <time>2010-11-07T09:31:40Z</time>
      </trkpt>
      <trkpt lat="43.52537" lon="3.04281">
        <ele>328.9083252</ele>
        <time>2010-11-07T09:31:48Z</time>
      </trkpt>
      <trkpt lat="43.52519" lon="3.04261">
        <ele>326.9855957</ele>
        <time>2010-11-07T09:31:53Z</time>
      </trkpt>
      <trkpt lat="43.52508" lon="3.04238">
        <ele>326.0241699</ele>
        <time>2010-11-07T09:31:57Z</time>
      </trkpt>
      <trkpt lat="43.52482" lon="3.04143">
        <ele>320.2563477</ele>
        <time>2010-11-07T09:32:10Z</time>
      </trkpt>
      <trkpt lat="43.52464" lon="3.04101">
        <ele>317.3724365</ele>
        <time>2010-11-07T09:32:16Z</time>
      </trkpt>
      <trkpt lat="43.52448" lon="3.04076">
        <ele>316.4110107</ele>
        <time>2010-11-07T09:32:20Z</time>
      </trkpt>
      <trkpt lat="43.52399" lon="3.03995">
        <ele>312.5657959</ele>
        <time>2010-11-07T09:32:32Z</time>
      </trkpt>
      <trkpt lat="43.524" lon="3.03964">
        <ele>307.2785645</ele>
        <time>2010-11-07T09:32:38Z</time>
      </trkpt>
      <trkpt lat="43.52403" lon="3.03944">
        <ele>304.3946533</ele>
        <time>2010-11-07T09:32:41Z</time>
      </trkpt>
      <trkpt lat="43.52402" lon="3.03912">
        <ele>302.4719238</ele>
        <time>2010-11-07T09:32:44Z</time>
      </trkpt>
      <trkpt lat="43.52406" lon="3.03872">
        <ele>301.0299072</ele>
        <time>2010-11-07T09:32:53Z</time>
      </trkpt>
      <trkpt lat="43.52418" lon="3.03856">
        <ele>299.1072998</ele>
        <time>2010-11-07T09:33:09Z</time>
      </trkpt>
      <trkpt lat="43.5243" lon="3.03843">
        <ele>297.6654053</ele>
        <time>2010-11-07T09:33:22Z</time>
      </trkpt>
      <trkpt lat="43.52454" lon="3.0385">
        <ele>297.1846924</ele>
        <time>2010-11-07T09:33:34Z</time>
      </trkpt>
      <trkpt lat="43.52455" lon="3.03849">
        <ele>297.1846924</ele>
        <time>2010-11-07T09:33:41Z</time>
      </trkpt>
      <trkpt lat="43.5249" lon="3.03833">
        <ele>296.7041016</ele>
        <time>2010-11-07T09:33:59Z</time>
      </trkpt>
      <trkpt lat="43.52514" lon="3.03824">
        <ele>295.2619629</ele>
        <time>2010-11-07T09:34:15Z</time>
      </trkpt>
      <trkpt lat="43.52543" lon="3.0381">
        <ele>293.3393555</ele>
        <time>2010-11-07T09:34:35Z</time>
      </trkpt>
      <trkpt lat="43.52568" lon="3.03799">
        <ele>288.532959</ele>
        <time>2010-11-07T09:34:51Z</time>
      </trkpt>
      <trkpt lat="43.52597" lon="3.03785">
        <ele>285.1682129</ele>
        <time>2010-11-07T09:35:11Z</time>
      </trkpt>
      <trkpt lat="43.52622" lon="3.03784">
        <ele>281.322998</ele>
        <time>2010-11-07T09:35:27Z</time>
      </trkpt>
      <trkpt lat="43.52651" lon="3.03788">
        <ele>286.6102295</ele>
        <time>2010-11-07T09:35:46Z</time>
      </trkpt>
      <trkpt lat="43.52669" lon="3.03792">
        <ele>293.3393555</ele>
        <time>2010-11-07T09:36:02Z</time>
      </trkpt>
      <trkpt lat="43.52669" lon="3.03792">
        <ele>294.7813721</ele>
        <time>2010-11-07T09:36:20Z</time>
      </trkpt>
      <trkpt lat="43.52669" lon="3.03792">
        <ele>294.7813721</ele>
        <time>2010-11-07T09:36:22Z</time>
      </trkpt>
      <trkpt lat="43.5263" lon="3.03785">
        <ele>295.2619629</ele>
        <time>2010-11-07T09:36:33Z</time>
      </trkpt>
      <trkpt lat="43.52597" lon="3.03785">
        <ele>294.7813721</ele>
        <time>2010-11-07T09:36:38Z</time>
      </trkpt>
      <trkpt lat="43.52526" lon="3.03818">
        <ele>289.0135498</ele>
        <time>2010-11-07T09:36:49Z</time>
      </trkpt>
      <trkpt lat="43.52449" lon="3.03854">
        <ele>278.9196777</ele>
        <time>2010-11-07T09:37:00Z</time>
      </trkpt>
      <trkpt lat="43.52433" lon="3.03865">
        <ele>277.958252</ele>
        <time>2010-11-07T09:37:02Z</time>
      </trkpt>
      <trkpt lat="43.52414" lon="3.03882">
        <ele>274.59375</ele>
        <time>2010-11-07T09:37:06Z</time>
      </trkpt>
      <trkpt lat="43.52414" lon="3.03882">
        <ele>271.7097168</ele>
        <time>2010-11-07T09:37:09Z</time>
      </trkpt>
      <trkpt lat="43.52403" lon="3.03884">
        <ele>270.7484131</ele>
        <time>2010-11-07T09:37:13Z</time>
      </trkpt>
      <trkpt lat="43.52406" lon="3.03872">
        <ele>269.7871094</ele>
        <time>2010-11-07T09:37:15Z</time>
      </trkpt>
      <trkpt lat="43.52425" lon="3.03849">
        <ele>267.864502</ele>
        <time>2010-11-07T09:37:20Z</time>
      </trkpt>
      <trkpt lat="43.52418" lon="3.03838">
        <ele>266.4224854</ele>
        <time>2010-11-07T09:37:24Z</time>
      </trkpt>
      <trkpt lat="43.524" lon="3.03851">
        <ele>264.4998779</ele>
        <time>2010-11-07T09:37:27Z</time>
      </trkpt>
      <trkpt lat="43.52386" lon="3.03879">
        <ele>261.6159668</ele>
        <time>2010-11-07T09:37:32Z</time>
      </trkpt>
      <trkpt lat="43.52362" lon="3.03884">
        <ele>258.7319336</ele>
        <time>2010-11-07T09:37:39Z</time>
      </trkpt>
      <trkpt lat="43.52361" lon="3.03898">
        <ele>258.2513428</ele>
        <time>2010-11-07T09:37:42Z</time>
      </trkpt>
      <trkpt lat="43.52354" lon="3.03909">
        <ele>258.7319336</ele>
        <time>2010-11-07T09:37:44Z</time>
      </trkpt>
      <trkpt lat="43.52335" lon="3.03916">
        <ele>257.770752</ele>
        <time>2010-11-07T09:37:48Z</time>
      </trkpt>
      <trkpt lat="43.52325" lon="3.03918">
        <ele>257.2900391</ele>
        <time>2010-11-07T09:37:50Z</time>
      </trkpt>
      <trkpt lat="43.52298" lon="3.03926">
        <ele>255.3673096</ele>
        <time>2010-11-07T09:37:56Z</time>
      </trkpt>
      <trkpt lat="43.5228" lon="3.03929">
        <ele>254.8865967</ele>
        <time>2010-11-07T09:38:00Z</time>
      </trkpt>
      <trkpt lat="43.52241" lon="3.03922">
        <ele>250.560791</ele>
        <time>2010-11-07T09:38:06Z</time>
      </trkpt>
      <trkpt lat="43.52192" lon="3.03903">
        <ele>250.0802002</ele>
        <time>2010-11-07T09:38:16Z</time>
      </trkpt>
      <trkpt lat="43.52178" lon="3.03874">
        <ele>249.5994873</ele>
        <time>2010-11-07T09:38:22Z</time>
      </trkpt>
      <trkpt lat="43.52159" lon="3.03818">
        <ele>245.2734375</ele>
        <time>2010-11-07T09:38:30Z</time>
      </trkpt>
      <trkpt lat="43.52134" lon="3.03797">
        <ele>245.7541504</ele>
        <time>2010-11-07T09:38:40Z</time>
      </trkpt>
      <trkpt lat="43.52104" lon="3.03768">
        <ele>247.1960449</ele>
        <time>2010-11-07T09:38:53Z</time>
      </trkpt>
      <trkpt lat="43.52104" lon="3.03767">
        <ele>247.1960449</ele>
        <time>2010-11-07T09:38:54Z</time>
      </trkpt>
      <trkpt lat="43.52082" lon="3.03723">
        <ele>247.6767578</ele>
        <time>2010-11-07T09:39:07Z</time>
      </trkpt>
      <trkpt lat="43.52077" lon="3.03698">
        <ele>246.7154541</ele>
        <time>2010-11-07T09:39:16Z</time>
      </trkpt>
      <trkpt lat="43.52076" lon="3.0369">
        <ele>246.7154541</ele>
        <time>2010-11-07T09:39:19Z</time>
      </trkpt>
      <trkpt lat="43.52073" lon="3.03683">
        <ele>247.6767578</ele>
        <time>2010-11-07T09:39:24Z</time>
      </trkpt>
      <trkpt lat="43.52073" lon="3.03682">
        <ele>248.1575928</ele>
        <time>2010-11-07T09:39:26Z</time>
      </trkpt>
      <trkpt lat="43.52071" lon="3.03681">
        <ele>248.1575928</ele>
        <time>2010-11-07T09:39:34Z</time>
      </trkpt>
      <trkpt lat="43.52052" lon="3.03746">
        <ele>248.1575928</ele>
        <time>2010-11-07T09:39:36Z</time>
      </trkpt>
      <trkpt lat="43.52068" lon="3.03679">
        <ele>246.2348633</ele>
        <time>2010-11-07T09:39:44Z</time>
      </trkpt>
      <trkpt lat="43.52019" lon="3.03667">
        <ele>245.2734375</ele>
        <time>2010-11-07T09:39:54Z</time>
      </trkpt>
      <trkpt lat="43.51994" lon="3.03653">
        <ele>240.467041</ele>
        <time>2010-11-07T09:40:02Z</time>
      </trkpt>
      <trkpt lat="43.51992" lon="3.03616">
        <ele>246.7154541</ele>
        <time>2010-11-07T09:40:17Z</time>
      </trkpt>
      <trkpt lat="43.51987" lon="3.03581">
        <ele>250.0802002</ele>
        <time>2010-11-07T09:40:30Z</time>
      </trkpt>
      <trkpt lat="43.51981" lon="3.0354">
        <ele>251.5220947</ele>
        <time>2010-11-07T09:40:47Z</time>
      </trkpt>
      <trkpt lat="43.51971" lon="3.03508">
        <ele>258.2513428</ele>
        <time>2010-11-07T09:41:03Z</time>
      </trkpt>
      <trkpt lat="43.51959" lon="3.03479">
        <ele>258.2513428</ele>
        <time>2010-11-07T09:41:18Z</time>
      </trkpt>
      <trkpt lat="43.51947" lon="3.03465">
        <ele>259.6933594</ele>
        <time>2010-11-07T09:41:29Z</time>
      </trkpt>
      <trkpt lat="43.51942" lon="3.03454">
        <ele>260.1739502</ele>
        <time>2010-11-07T09:41:35Z</time>
      </trkpt>
      <trkpt lat="43.51942" lon="3.03454">
        <ele>261.6159668</ele>
        <time>2010-11-07T09:41:38Z</time>
      </trkpt>
      <trkpt lat="43.51945" lon="3.03443">
        <ele>261.6159668</ele>
        <time>2010-11-07T09:41:41Z</time>
      </trkpt>
      <trkpt lat="43.51962" lon="3.03451">
        <ele>262.0965576</ele>
        <time>2010-11-07T09:41:53Z</time>
      </trkpt>
      <trkpt lat="43.51978" lon="3.03459">
        <ele>263.5385742</ele>
        <time>2010-11-07T09:42:08Z</time>
      </trkpt>
      <trkpt lat="43.51981" lon="3.03456">
        <ele>264.4998779</ele>
        <time>2010-11-07T09:42:20Z</time>
      </trkpt>
      <trkpt lat="43.51974" lon="3.03451">
        <ele>265.4613037</ele>
        <time>2010-11-07T09:42:26Z</time>
      </trkpt>
      <trkpt lat="43.51969" lon="3.03438">
        <ele>265.9418945</ele>
        <time>2010-11-07T09:42:41Z</time>
      </trkpt>
      <trkpt lat="43.51968" lon="3.03436">
        <ele>265.9418945</ele>
        <time>2010-11-07T09:42:47Z</time>
      </trkpt>
      <trkpt lat="43.51962" lon="3.03423">
        <ele>265.4613037</ele>
        <time>2010-11-07T09:42:54Z</time>
      </trkpt>
      <trkpt lat="43.51959" lon="3.03419">
        <ele>264.9805908</ele>
        <time>2010-11-07T09:42:57Z</time>
      </trkpt>
      <trkpt lat="43.51945" lon="3.03396">
        <ele>266.4224854</ele>
        <time>2010-11-07T09:43:12Z</time>
      </trkpt>
      <trkpt lat="43.51927" lon="3.03374">
        <ele>269.7871094</ele>
        <time>2010-11-07T09:43:29Z</time>
      </trkpt>
      <trkpt lat="43.51925" lon="3.03374">
        <ele>270.2677002</ele>
        <time>2010-11-07T09:43:49Z</time>
      </trkpt>
      <trkpt lat="43.51922" lon="3.03367">
        <ele>270.7484131</ele>
        <time>2010-11-07T09:44:23Z</time>
      </trkpt>
      <trkpt lat="43.51919" lon="3.03362">
        <ele>273.1518555</ele>
        <time>2010-11-07T09:44:38Z</time>
      </trkpt>
      <trkpt lat="43.51913" lon="3.03353">
        <ele>275.5550537</ele>
        <time>2010-11-07T09:44:53Z</time>
      </trkpt>
      <trkpt lat="43.5191" lon="3.03341">
        <ele>278.9196777</ele>
        <time>2010-11-07T09:45:05Z</time>
      </trkpt>
      <trkpt lat="43.51909" lon="3.03325">
        <ele>283.7261963</ele>
        <time>2010-11-07T09:45:24Z</time>
      </trkpt>
      <trkpt lat="43.51914" lon="3.03312">
        <ele>287.0908203</ele>
        <time>2010-11-07T09:45:42Z</time>
      </trkpt>
      <trkpt lat="43.5192" lon="3.03297">
        <ele>291.416748</ele>
        <time>2010-11-07T09:45:56Z</time>
      </trkpt>
      <trkpt lat="43.51923" lon="3.0329">
        <ele>292.8587646</ele>
        <time>2010-11-07T09:46:09Z</time>
      </trkpt>
      <trkpt lat="43.51927" lon="3.03299">
        <ele>297.6654053</ele>
        <time>2010-11-07T09:46:18Z</time>
      </trkpt>
      <trkpt lat="43.51929" lon="3.03303">
        <ele>298.626709</ele>
        <time>2010-11-07T09:46:21Z</time>
      </trkpt>
      <trkpt lat="43.5193" lon="3.03307">
        <ele>299.5880127</ele>
        <time>2010-11-07T09:46:24Z</time>
      </trkpt>
      <trkpt lat="43.51932" lon="3.0332">
        <ele>301.0299072</ele>
        <time>2010-11-07T09:46:37Z</time>
      </trkpt>
      <trkpt lat="43.51942" lon="3.03336">
        <ele>301.0299072</ele>
        <time>2010-11-07T09:46:48Z</time>
      </trkpt>
      <trkpt lat="43.51947" lon="3.03328">
        <ele>302.9525146</ele>
        <time>2010-11-07T09:46:55Z</time>
      </trkpt>
      <trkpt lat="43.51949" lon="3.03296">
        <ele>306.7978516</ele>
        <time>2010-11-07T09:47:10Z</time>
      </trkpt>
      <trkpt lat="43.5195" lon="3.03292">
        <ele>307.7592773</ele>
        <time>2010-11-07T09:47:12Z</time>
      </trkpt>
      <trkpt lat="43.5196" lon="3.03285">
        <ele>308.720459</ele>
        <time>2010-11-07T09:47:20Z</time>
      </trkpt>
      <trkpt lat="43.51963" lon="3.03298">
        <ele>312.0852051</ele>
        <time>2010-11-07T09:47:27Z</time>
      </trkpt>
      <trkpt lat="43.51962" lon="3.03301">
        <ele>313.0465088</ele>
        <time>2010-11-07T09:47:30Z</time>
      </trkpt>
      <trkpt lat="43.51963" lon="3.03309">
        <ele>315.4498291</ele>
        <time>2010-11-07T09:47:35Z</time>
      </trkpt>
      <trkpt lat="43.51973" lon="3.03335">
        <ele>318.3336182</ele>
        <time>2010-11-07T09:47:51Z</time>
      </trkpt>
      <trkpt lat="43.5198" lon="3.03339">
        <ele>317.8530273</ele>
        <time>2010-11-07T09:48:03Z</time>
      </trkpt>
      <trkpt lat="43.5198" lon="3.03336">
        <ele>317.3724365</ele>
        <time>2010-11-07T09:49:25Z</time>
      </trkpt>
      <trkpt lat="43.51979" lon="3.03329">
        <ele>318.3336182</ele>
        <time>2010-11-07T09:49:29Z</time>
      </trkpt>
      <trkpt lat="43.51989" lon="3.03283">
        <ele>320.2563477</ele>
        <time>2010-11-07T09:49:47Z</time>
      </trkpt>
      <trkpt lat="43.5201" lon="3.03227">
        <ele>327.9467773</ele>
        <time>2010-11-07T09:50:09Z</time>
      </trkpt>
      <trkpt lat="43.52031" lon="3.03179">
        <ele>330.3502197</ele>
        <time>2010-11-07T09:50:30Z</time>
      </trkpt>
      <trkpt lat="43.52038" lon="3.03119">
        <ele>330.3502197</ele>
        <time>2010-11-07T09:50:51Z</time>
      </trkpt>
      <trkpt lat="43.52051" lon="3.03069">
        <ele>328.9083252</ele>
        <time>2010-11-07T09:51:10Z</time>
      </trkpt>
      <trkpt lat="43.52071" lon="3.03006">
        <ele>327.4661865</ele>
        <time>2010-11-07T09:51:35Z</time>
      </trkpt>
      <trkpt lat="43.52079" lon="3.02963">
        <ele>327.9467773</ele>
        <time>2010-11-07T09:51:53Z</time>
      </trkpt>
      <trkpt lat="43.52052" lon="3.02953">
        <ele>333.7147217</ele>
        <time>2010-11-07T09:52:08Z</time>
      </trkpt>
      <trkpt lat="43.5204" lon="3.0295">
        <ele>335.1567383</ele>
        <time>2010-11-07T09:52:15Z</time>
      </trkpt>
      <trkpt lat="43.52013" lon="3.02929">
        <ele>335.1567383</ele>
        <time>2010-11-07T09:52:38Z</time>
      </trkpt>
      <trkpt lat="43.52003" lon="3.02894">
        <ele>337.5600586</ele>
        <time>2010-11-07T09:52:56Z</time>
      </trkpt>
      <trkpt lat="43.52015" lon="3.0286">
        <ele>340.9246826</ele>
        <time>2010-11-07T09:53:14Z</time>
      </trkpt>
      <trkpt lat="43.52024" lon="3.02867">
        <ele>343.3278809</ele>
        <time>2010-11-07T09:53:22Z</time>
      </trkpt>
      <trkpt lat="43.52025" lon="3.02876">
        <ele>345.7313232</ele>
        <time>2010-11-07T09:53:29Z</time>
      </trkpt>
      <trkpt lat="43.5203" lon="3.02886">
        <ele>347.6539307</ele>
        <time>2010-11-07T09:53:35Z</time>
      </trkpt>
      <trkpt lat="43.52033" lon="3.02884">
        <ele>351.0184326</ele>
        <time>2010-11-07T09:53:44Z</time>
      </trkpt>
      <trkpt lat="43.52038" lon="3.02861">
        <ele>353.421875</ele>
        <time>2010-11-07T09:53:57Z</time>
      </trkpt>
      <trkpt lat="43.52048" lon="3.02873">
        <ele>355.8251953</ele>
        <time>2010-11-07T09:54:10Z</time>
      </trkpt>
      <trkpt lat="43.52053" lon="3.0288">
        <ele>357.2670898</ele>
        <time>2010-11-07T09:54:19Z</time>
      </trkpt>
      <trkpt lat="43.52071" lon="3.02879">
        <ele>361.5931396</ele>
        <time>2010-11-07T09:54:36Z</time>
      </trkpt>
      <trkpt lat="43.52094" lon="3.02865">
        <ele>367.3609619</ele>
        <time>2010-11-07T09:54:54Z</time>
      </trkpt>
      <trkpt lat="43.52108" lon="3.02857">
        <ele>371.2062988</ele>
        <time>2010-11-07T09:55:08Z</time>
      </trkpt>
      <trkpt lat="43.52111" lon="3.02855">
        <ele>372.6481934</ele>
        <time>2010-11-07T09:55:22Z</time>
      </trkpt>
      <trkpt lat="43.52123" lon="3.02848">
        <ele>374.0900879</ele>
        <time>2010-11-07T09:55:42Z</time>
      </trkpt>
      <trkpt lat="43.5213" lon="3.02844">
        <ele>376.4935303</ele>
        <time>2010-11-07T09:55:52Z</time>
      </trkpt>
      <trkpt lat="43.52138" lon="3.02838">
        <ele>378.8968506</ele>
        <time>2010-11-07T09:56:03Z</time>
      </trkpt>
      <trkpt lat="43.52152" lon="3.02839">
        <ele>384.184082</ele>
        <time>2010-11-07T09:56:22Z</time>
      </trkpt>
      <trkpt lat="43.52161" lon="3.02837">
        <ele>389.9519043</ele>
        <time>2010-11-07T09:56:36Z</time>
      </trkpt>
      <trkpt lat="43.52167" lon="3.02837">
        <ele>391.3937988</ele>
        <time>2010-11-07T09:56:41Z</time>
      </trkpt>
      <trkpt lat="43.52172" lon="3.02826">
        <ele>393.7972412</ele>
        <time>2010-11-07T09:56:51Z</time>
      </trkpt>
      <trkpt lat="43.52174" lon="3.02817">
        <ele>395.7198486</ele>
        <time>2010-11-07T09:56:58Z</time>
      </trkpt>
      <trkpt lat="43.52179" lon="3.02786">
        <ele>401.487793</ele>
        <time>2010-11-07T09:57:19Z</time>
      </trkpt>
      <trkpt lat="43.52181" lon="3.02779">
        <ele>402.4490967</ele>
        <time>2010-11-07T09:57:25Z</time>
      </trkpt>
      <trkpt lat="43.52183" lon="3.02775">
        <ele>402.4490967</ele>
        <time>2010-11-07T09:57:32Z</time>
      </trkpt>
      <trkpt lat="43.52197" lon="3.02741">
        <ele>407.7363281</ele>
        <time>2010-11-07T09:57:49Z</time>
      </trkpt>
      <trkpt lat="43.52212" lon="3.02726">
        <ele>411.1009521</ele>
        <time>2010-11-07T09:58:01Z</time>
      </trkpt>
      <trkpt lat="43.52213" lon="3.02734">
        <ele>412.5428467</ele>
        <time>2010-11-07T09:58:06Z</time>
      </trkpt>
      <trkpt lat="43.52212" lon="3.02774">
        <ele>413.5042725</ele>
        <time>2010-11-07T09:58:24Z</time>
      </trkpt>
      <trkpt lat="43.52219" lon="3.02791">
        <ele>414.4654541</ele>
        <time>2010-11-07T09:58:33Z</time>
      </trkpt>
      <trkpt lat="43.52222" lon="3.0278">
        <ele>416.3881836</ele>
        <time>2010-11-07T09:58:40Z</time>
      </trkpt>
      <trkpt lat="43.5223" lon="3.02742">
        <ele>418.310791</ele>
        <time>2010-11-07T09:58:59Z</time>
      </trkpt>
      <trkpt lat="43.5225" lon="3.02717">
        <ele>422.1560059</ele>
        <time>2010-11-07T09:59:16Z</time>
      </trkpt>
      <trkpt lat="43.52266" lon="3.02701">
        <ele>426.0013428</ele>
        <time>2010-11-07T09:59:32Z</time>
      </trkpt>
      <trkpt lat="43.52275" lon="3.02688">
        <ele>429.3659668</ele>
        <time>2010-11-07T09:59:41Z</time>
      </trkpt>
      <trkpt lat="43.5228" lon="3.02699">
        <ele>432.7307129</ele>
        <time>2010-11-07T09:59:48Z</time>
      </trkpt>
      <trkpt lat="43.52269" lon="3.02734">
        <ele>435.1339111</ele>
        <time>2010-11-07T10:00:06Z</time>
      </trkpt>
      <trkpt lat="43.52268" lon="3.02769">
        <ele>435.614502</ele>
        <time>2010-11-07T10:00:23Z</time>
      </trkpt>
      <trkpt lat="43.52274" lon="3.02781">
        <ele>438.4985352</ele>
        <time>2010-11-07T10:00:29Z</time>
      </trkpt>
      <trkpt lat="43.52281" lon="3.02775">
        <ele>438.4985352</ele>
        <time>2010-11-07T10:00:36Z</time>
      </trkpt>
      <trkpt lat="43.52295" lon="3.02744">
        <ele>442.8244629</ele>
        <time>2010-11-07T10:00:56Z</time>
      </trkpt>
      <trkpt lat="43.52309" lon="3.02729">
        <ele>443.7857666</ele>
        <time>2010-11-07T10:01:11Z</time>
      </trkpt>
      <trkpt lat="43.52324" lon="3.02716">
        <ele>447.1502686</ele>
        <time>2010-11-07T10:01:29Z</time>
      </trkpt>
      <trkpt lat="43.5234" lon="3.02707">
        <ele>452.4376221</ele>
        <time>2010-11-07T10:01:45Z</time>
      </trkpt>
      <trkpt lat="43.52355" lon="3.02696">
        <ele>454.3602295</ele>
        <time>2010-11-07T10:02:01Z</time>
      </trkpt>
      <trkpt lat="43.52367" lon="3.02686">
        <ele>458.2055664</ele>
        <time>2010-11-07T10:02:17Z</time>
      </trkpt>
      <trkpt lat="43.52381" lon="3.02674">
        <ele>461.5701904</ele>
        <time>2010-11-07T10:02:33Z</time>
      </trkpt>
      <trkpt lat="43.52393" lon="3.02658">
        <ele>465.4155273</ele>
        <time>2010-11-07T10:02:49Z</time>
      </trkpt>
      <trkpt lat="43.52412" lon="3.02643">
        <ele>470.7026367</ele>
        <time>2010-11-07T10:03:07Z</time>
      </trkpt>
      <trkpt lat="43.52429" lon="3.02625">
        <ele>474.0672607</ele>
        <time>2010-11-07T10:03:24Z</time>
      </trkpt>
      <trkpt lat="43.52442" lon="3.02598">
        <ele>477.9124756</ele>
        <time>2010-11-07T10:03:45Z</time>
      </trkpt>
      <trkpt lat="43.52455" lon="3.02575">
        <ele>484.1611328</ele>
        <time>2010-11-07T10:04:03Z</time>
      </trkpt>
      <trkpt lat="43.52458" lon="3.02563">
        <ele>485.1224365</ele>
        <time>2010-11-07T10:04:10Z</time>
      </trkpt>
      <trkpt lat="43.52459" lon="3.02528">
        <ele>489.9290771</ele>
        <time>2010-11-07T10:04:26Z</time>
      </trkpt>
      <trkpt lat="43.52465" lon="3.02494">
        <ele>493.2935791</ele>
        <time>2010-11-07T10:04:40Z</time>
      </trkpt>
      <trkpt lat="43.52471" lon="3.02451">
        <ele>496.6583252</ele>
        <time>2010-11-07T10:05:00Z</time>
      </trkpt>
      <trkpt lat="43.52484" lon="3.0242">
        <ele>496.1777344</ele>
        <time>2010-11-07T10:05:17Z</time>
      </trkpt>
      <trkpt lat="43.5249" lon="3.02416">
        <ele>497.138916</ele>
        <time>2010-11-07T10:05:22Z</time>
      </trkpt>
      <trkpt lat="43.52499" lon="3.02411">
        <ele>497.138916</ele>
        <time>2010-11-07T10:05:31Z</time>
      </trkpt>
      <trkpt lat="43.52501" lon="3.02411">
        <ele>495.2161865</ele>
        <time>2010-11-07T10:05:55Z</time>
      </trkpt>
      <trkpt lat="43.52501" lon="3.02411">
        <ele>494.7355957</ele>
        <time>2010-11-07T10:08:22Z</time>
      </trkpt>
      <trkpt lat="43.525" lon="3.02411">
        <ele>494.2550049</ele>
        <time>2010-11-07T10:09:52Z</time>
      </trkpt>
      <trkpt lat="43.525" lon="3.0241">
        <ele>495.2161865</ele>
        <time>2010-11-07T10:10:29Z</time>
      </trkpt>
      <trkpt lat="43.525" lon="3.0241">
        <ele>495.2161865</ele>
        <time>2010-11-07T10:10:39Z</time>
      </trkpt>
      <trkpt lat="43.52501" lon="3.0241">
        <ele>494.7355957</ele>
        <time>2010-11-07T10:10:41Z</time>
      </trkpt>
      <trkpt lat="43.52519" lon="3.02442">
        <ele>497.6196289</ele>
        <time>2010-11-07T10:10:58Z</time>
      </trkpt>
      <trkpt lat="43.52529" lon="3.02452">
        <ele>497.6196289</ele>
        <time>2010-11-07T10:11:04Z</time>
      </trkpt>
      <trkpt lat="43.52532" lon="3.02447">
        <ele>498.5809326</ele>
        <time>2010-11-07T10:11:08Z</time>
      </trkpt>
      <trkpt lat="43.52541" lon="3.02419">
        <ele>501.9455566</ele>
        <time>2010-11-07T10:11:25Z</time>
      </trkpt>
      <trkpt lat="43.52556" lon="3.02381">
        <ele>506.2714844</ele>
        <time>2010-11-07T10:11:47Z</time>
      </trkpt>
      <trkpt lat="43.5257" lon="3.02347">
        <ele>511.0780029</ele>
        <time>2010-11-07T10:12:09Z</time>
      </trkpt>
      <trkpt lat="43.5258" lon="3.02307">
        <ele>515.8846436</ele>
        <time>2010-11-07T10:12:33Z</time>
      </trkpt>
      <trkpt lat="43.52597" lon="3.0228">
        <ele>517.3266602</ele>
        <time>2010-11-07T10:12:50Z</time>
      </trkpt>
      <trkpt lat="43.52598" lon="3.0224">
        <ele>520.6912842</ele>
        <time>2010-11-07T10:13:09Z</time>
      </trkpt>
      <trkpt lat="43.52589" lon="3.02183">
        <ele>523.0946045</ele>
        <time>2010-11-07T10:13:33Z</time>
      </trkpt>
      <trkpt lat="43.5258" lon="3.02132">
        <ele>524.0557861</ele>
        <time>2010-11-07T10:13:53Z</time>
      </trkpt>
      <trkpt lat="43.52549" lon="3.02089">
        <ele>523.5751953</ele>
        <time>2010-11-07T10:14:13Z</time>
      </trkpt>
      <trkpt lat="43.5251" lon="3.02046">
        <ele>531.2657471</ele>
        <time>2010-11-07T10:14:31Z</time>
      </trkpt>
      <trkpt lat="43.52469" lon="3.02016">
        <ele>532.2270508</ele>
        <time>2010-11-07T10:14:48Z</time>
      </trkpt>
      <trkpt lat="43.5243" lon="3.01974">
        <ele>532.7077637</ele>
        <time>2010-11-07T10:15:09Z</time>
      </trkpt>
      <trkpt lat="43.52406" lon="3.01928">
        <ele>535.1109619</ele>
        <time>2010-11-07T10:15:29Z</time>
      </trkpt>
      <trkpt lat="43.52399" lon="3.0188">
        <ele>537.0336914</ele>
        <time>2010-11-07T10:15:48Z</time>
      </trkpt>
      <trkpt lat="43.52389" lon="3.0185">
        <ele>540.3983154</ele>
        <time>2010-11-07T10:16:03Z</time>
      </trkpt>
      <trkpt lat="43.52376" lon="3.01825">
        <ele>543.2821045</ele>
        <time>2010-11-07T10:16:18Z</time>
      </trkpt>
      <trkpt lat="43.52368" lon="3.01813">
        <ele>542.8015137</ele>
        <time>2010-11-07T10:16:40Z</time>
      </trkpt>
      <trkpt lat="43.52368" lon="3.01813">
        <ele>542.8015137</ele>
        <time>2010-11-07T10:17:12Z</time>
      </trkpt>
      <trkpt lat="43.52372" lon="3.01806">
        <ele>542.3209229</ele>
        <time>2010-11-07T10:17:25Z</time>
      </trkpt>
      <trkpt lat="43.52371" lon="3.01811">
        <ele>541.84021</ele>
        <time>2010-11-07T10:17:53Z</time>
      </trkpt>
      <trkpt lat="43.52359" lon="3.01799">
        <ele>541.3594971</ele>
        <time>2010-11-07T10:19:08Z</time>
      </trkpt>
      <trkpt lat="43.52352" lon="3.01792">
        <ele>541.3594971</ele>
        <time>2010-11-07T10:19:12Z</time>
      </trkpt>
      <trkpt lat="43.52323" lon="3.01749">
        <ele>538.475708</ele>
        <time>2010-11-07T10:19:26Z</time>
      </trkpt>
      <trkpt lat="43.5232" lon="3.01746">
        <ele>537.5142822</ele>
        <time>2010-11-07T10:19:27Z</time>
      </trkpt>
      <trkpt lat="43.52288" lon="3.0172">
        <ele>534.1496582</ele>
        <time>2010-11-07T10:19:37Z</time>
      </trkpt>
      <trkpt lat="43.52276" lon="3.01721">
        <ele>532.7077637</ele>
        <time>2010-11-07T10:19:42Z</time>
      </trkpt>
      <trkpt lat="43.52269" lon="3.01725">
        <ele>532.7077637</ele>
        <time>2010-11-07T10:19:47Z</time>
      </trkpt>
      <trkpt lat="43.52259" lon="3.01718">
        <ele>531.2657471</ele>
        <time>2010-11-07T10:19:52Z</time>
      </trkpt>
      <trkpt lat="43.52243" lon="3.01711">
        <ele>526.9398193</ele>
        <time>2010-11-07T10:20:02Z</time>
      </trkpt>
      <trkpt lat="43.52234" lon="3.01717">
        <ele>524.536499</ele>
        <time>2010-11-07T10:20:08Z</time>
      </trkpt>
      <trkpt lat="43.52214" lon="3.01726">
        <ele>519.2492676</ele>
        <time>2010-11-07T10:20:18Z</time>
      </trkpt>
      <trkpt lat="43.5221" lon="3.01729">
        <ele>518.7685547</ele>
        <time>2010-11-07T10:20:21Z</time>
      </trkpt>
      <trkpt lat="43.52196" lon="3.01714">
        <ele>512.5200195</ele>
        <time>2010-11-07T10:20:35Z</time>
      </trkpt>
      <trkpt lat="43.5219" lon="3.01687">
        <ele>510.1166992</ele>
        <time>2010-11-07T10:20:46Z</time>
      </trkpt>
      <trkpt lat="43.52187" lon="3.01675">
        <ele>507.713501</ele>
        <time>2010-11-07T10:20:50Z</time>
      </trkpt>
      <trkpt lat="43.52166" lon="3.01652">
        <ele>501.9455566</ele>
        <time>2010-11-07T10:21:00Z</time>
      </trkpt>
      <trkpt lat="43.52133" lon="3.01646">
        <ele>496.1777344</ele>
        <time>2010-11-07T10:21:10Z</time>
      </trkpt>
      <trkpt lat="43.52132" lon="3.01648">
        <ele>495.6968994</ele>
        <time>2010-11-07T10:21:11Z</time>
      </trkpt>
      <trkpt lat="43.5213" lon="3.01655">
        <ele>495.2161865</ele>
        <time>2010-11-07T10:21:13Z</time>
      </trkpt>
      <trkpt lat="43.52109" lon="3.01692">
        <ele>495.2161865</ele>
        <time>2010-11-07T10:21:25Z</time>
      </trkpt>
      <trkpt lat="43.52091" lon="3.01703">
        <ele>494.7355957</ele>
        <time>2010-11-07T10:21:34Z</time>
      </trkpt>
      <trkpt lat="43.52065" lon="3.01708">
        <ele>491.3709717</ele>
        <time>2010-11-07T10:21:47Z</time>
      </trkpt>
      <trkpt lat="43.52039" lon="3.017">
        <ele>491.3709717</ele>
        <time>2010-11-07T10:22:01Z</time>
      </trkpt>
      <trkpt lat="43.52032" lon="3.01694">
        <ele>489.9290771</ele>
        <time>2010-11-07T10:22:13Z</time>
      </trkpt>
      <trkpt lat="43.52016" lon="3.01687">
        <ele>489.4483643</ele>
        <time>2010-11-07T10:22:34Z</time>
      </trkpt>
      <trkpt lat="43.51998" lon="3.0168">
        <ele>490.40979</ele>
        <time>2010-11-07T10:22:44Z</time>
      </trkpt>
      <trkpt lat="43.51945" lon="3.0168">
        <ele>488.0064697</ele>
        <time>2010-11-07T10:22:55Z</time>
      </trkpt>
      <trkpt lat="43.51898" lon="3.01677">
        <ele>495.2161865</ele>
        <time>2010-11-07T10:23:07Z</time>
      </trkpt>
      <trkpt lat="43.51881" lon="3.017">
        <ele>495.2161865</ele>
        <time>2010-11-07T10:23:20Z</time>
      </trkpt>
      <trkpt lat="43.51875" lon="3.01707">
        <ele>492.8129883</ele>
        <time>2010-11-07T10:23:24Z</time>
      </trkpt>
      <trkpt lat="43.51838" lon="3.01681">
        <ele>487.5256348</ele>
        <time>2010-11-07T10:23:33Z</time>
      </trkpt>
      <trkpt lat="43.51827" lon="3.01706">
        <ele>484.1611328</ele>
        <time>2010-11-07T10:23:45Z</time>
      </trkpt>
      <trkpt lat="43.51819" lon="3.01722">
        <ele>482.2385254</ele>
        <time>2010-11-07T10:23:53Z</time>
      </trkpt>
      <trkpt lat="43.51813" lon="3.01735">
        <ele>479.835083</ele>
        <time>2010-11-07T10:23:56Z</time>
      </trkpt>
      <trkpt lat="43.51806" lon="3.01752">
        <ele>477.9124756</ele>
        <time>2010-11-07T10:24:01Z</time>
      </trkpt>
      <trkpt lat="43.51798" lon="3.01797">
        <ele>472.6253662</ele>
        <time>2010-11-07T10:24:13Z</time>
      </trkpt>
      <trkpt lat="43.51774" lon="3.01845">
        <ele>470.2219238</ele>
        <time>2010-11-07T10:24:25Z</time>
      </trkpt>
      <trkpt lat="43.51766" lon="3.01855">
        <ele>463.4927979</ele>
        <time>2010-11-07T10:24:28Z</time>
      </trkpt>
      <trkpt lat="43.51754" lon="3.0186">
        <ele>459.1668701</ele>
        <time>2010-11-07T10:24:32Z</time>
      </trkpt>
      <trkpt lat="43.51744" lon="3.01856">
        <ele>458.2055664</ele>
        <time>2010-11-07T10:24:37Z</time>
      </trkpt>
      <trkpt lat="43.51743" lon="3.01848">
        <ele>457.2442627</ele>
        <time>2010-11-07T10:24:40Z</time>
      </trkpt>
      <trkpt lat="43.51743" lon="3.0184">
        <ele>456.282959</ele>
        <time>2010-11-07T10:24:43Z</time>
      </trkpt>
      <trkpt lat="43.51738" lon="3.01825">
        <ele>456.282959</ele>
        <time>2010-11-07T10:24:47Z</time>
      </trkpt>
      <trkpt lat="43.51736" lon="3.01817">
        <ele>456.282959</ele>
        <time>2010-11-07T10:24:55Z</time>
      </trkpt>
      <trkpt lat="43.51736" lon="3.01807">
        <ele>456.282959</ele>
        <time>2010-11-07T10:24:58Z</time>
      </trkpt>
      <trkpt lat="43.51718" lon="3.01765">
        <ele>452.9182129</ele>
        <time>2010-11-07T10:25:10Z</time>
      </trkpt>
      <trkpt lat="43.51717" lon="3.0176">
        <ele>453.3989258</ele>
        <time>2010-11-07T10:25:12Z</time>
      </trkpt>
      <trkpt lat="43.51716" lon="3.01755">
        <ele>454.3602295</ele>
        <time>2010-11-07T10:25:14Z</time>
      </trkpt>
      <trkpt lat="43.51706" lon="3.0172">
        <ele>453.8796387</ele>
        <time>2010-11-07T10:25:29Z</time>
      </trkpt>
      <trkpt lat="43.51706" lon="3.01717">
        <ele>453.8796387</ele>
        <time>2010-11-07T10:25:30Z</time>
      </trkpt>
      <trkpt lat="43.51705" lon="3.01672">
        <ele>452.9182129</ele>
        <time>2010-11-07T10:25:45Z</time>
      </trkpt>
      <trkpt lat="43.51711" lon="3.01649">
        <ele>451.4763184</ele>
        <time>2010-11-07T10:25:57Z</time>
      </trkpt>
      <trkpt lat="43.5171" lon="3.01645">
        <ele>450.9956055</ele>
        <time>2010-11-07T10:25:59Z</time>
      </trkpt>
      <trkpt lat="43.51709" lon="3.0164">
        <ele>450.9956055</ele>
        <time>2010-11-07T10:26:01Z</time>
      </trkpt>
      <trkpt lat="43.51715" lon="3.01612">
        <ele>448.1118164</ele>
        <time>2010-11-07T10:26:12Z</time>
      </trkpt>
      <trkpt lat="43.51713" lon="3.01605">
        <ele>445.2276611</ele>
        <time>2010-11-07T10:26:15Z</time>
      </trkpt>
      <trkpt lat="43.51713" lon="3.01599">
        <ele>443.3050537</ele>
        <time>2010-11-07T10:26:18Z</time>
      </trkpt>
      <trkpt lat="43.51714" lon="3.01586">
        <ele>442.3438721</ele>
        <time>2010-11-07T10:26:23Z</time>
      </trkpt>
      <trkpt lat="43.51715" lon="3.01577">
        <ele>440.4212646</ele>
        <time>2010-11-07T10:26:27Z</time>
      </trkpt>
      <trkpt lat="43.51716" lon="3.01567">
        <ele>437.5371094</ele>
        <time>2010-11-07T10:26:33Z</time>
      </trkpt>
      <trkpt lat="43.51716" lon="3.01548">
        <ele>434.1726074</ele>
        <time>2010-11-07T10:26:40Z</time>
      </trkpt>
      <trkpt lat="43.5172" lon="3.01531">
        <ele>430.3272705</ele>
        <time>2010-11-07T10:26:47Z</time>
      </trkpt>
      <trkpt lat="43.51709" lon="3.01502">
        <ele>430.8079834</ele>
        <time>2010-11-07T10:26:59Z</time>
      </trkpt>
      <trkpt lat="43.5169" lon="3.0149">
        <ele>430.8079834</ele>
        <time>2010-11-07T10:27:13Z</time>
      </trkpt>
      <trkpt lat="43.51664" lon="3.01477">
        <ele>427.4433594</ele>
        <time>2010-11-07T10:27:24Z</time>
      </trkpt>
      <trkpt lat="43.51649" lon="3.01465">
        <ele>425.0401611</ele>
        <time>2010-11-07T10:27:37Z</time>
      </trkpt>
      <trkpt lat="43.51628" lon="3.01451">
        <ele>422.6367188</ele>
        <time>2010-11-07T10:27:45Z</time>
      </trkpt>
      <trkpt lat="43.51621" lon="3.01436">
        <ele>421.1948242</ele>
        <time>2010-11-07T10:27:54Z</time>
      </trkpt>
      <trkpt lat="43.51618" lon="3.01437">
        <ele>420.2333984</ele>
        <time>2010-11-07T10:27:56Z</time>
      </trkpt>
      <trkpt lat="43.5161" lon="3.01437">
        <ele>415.9074707</ele>
        <time>2010-11-07T10:28:01Z</time>
      </trkpt>
      <trkpt lat="43.51602" lon="3.01431">
        <ele>412.5428467</ele>
        <time>2010-11-07T10:28:04Z</time>
      </trkpt>
      <trkpt lat="43.51594" lon="3.01431">
        <ele>410.1396484</ele>
        <time>2010-11-07T10:28:07Z</time>
      </trkpt>
      <trkpt lat="43.51589" lon="3.01428">
        <ele>408.6976318</ele>
        <time>2010-11-07T10:28:10Z</time>
      </trkpt>
      <trkpt lat="43.51582" lon="3.01426">
        <ele>405.8137207</ele>
        <time>2010-11-07T10:28:16Z</time>
      </trkpt>
      <trkpt lat="43.51578" lon="3.01424">
        <ele>403.4104004</ele>
        <time>2010-11-07T10:28:19Z</time>
      </trkpt>
      <trkpt lat="43.51573" lon="3.01426">
        <ele>401.9685059</ele>
        <time>2010-11-07T10:28:23Z</time>
      </trkpt>
      <trkpt lat="43.51569" lon="3.01426">
        <ele>400.0458984</ele>
        <time>2010-11-07T10:28:27Z</time>
      </trkpt>
      <trkpt lat="43.51545" lon="3.01416">
        <ele>390.4326172</ele>
        <time>2010-11-07T10:28:39Z</time>
      </trkpt>
      <trkpt lat="43.5153" lon="3.01411">
        <ele>384.184082</ele>
        <time>2010-11-07T10:28:44Z</time>
      </trkpt>
      <trkpt lat="43.51513" lon="3.01407">
        <ele>380.819458</ele>
        <time>2010-11-07T10:28:49Z</time>
      </trkpt>
      <trkpt lat="43.51505" lon="3.01407">
        <ele>378.8968506</ele>
        <time>2010-11-07T10:28:57Z</time>
      </trkpt>
      <trkpt lat="43.51505" lon="3.01407">
        <ele>376.9742432</ele>
        <time>2010-11-07T10:31:31Z</time>
      </trkpt>
      <trkpt lat="43.51505" lon="3.01407">
        <ele>376.9742432</ele>
        <time>2010-11-07T10:33:05Z</time>
      </trkpt>
      <trkpt lat="43.51505" lon="3.01407">
        <ele>376.9742432</ele>
        <time>2010-11-07T10:33:16Z</time>
      </trkpt>
      <trkpt lat="43.51505" lon="3.01407">
        <ele>376.9742432</ele>
        <time>2010-11-07T10:33:18Z</time>
      </trkpt>
      <trkpt lat="43.51515" lon="3.01418">
        <ele>376.9742432</ele>
        <time>2010-11-07T10:33:21Z</time>
      </trkpt>
      <trkpt lat="43.51492" lon="3.01406">
        <ele>376.4935303</ele>
        <time>2010-11-07T10:33:27Z</time>
      </trkpt>
      <trkpt lat="43.51452" lon="3.01418">
        <ele>378.4161377</ele>
        <time>2010-11-07T10:33:45Z</time>
      </trkpt>
      <trkpt lat="43.51416" lon="3.01438">
        <ele>379.3774414</ele>
        <time>2010-11-07T10:34:01Z</time>
      </trkpt>
      <trkpt lat="43.51367" lon="3.0148">
        <ele>379.3774414</ele>
        <time>2010-11-07T10:34:22Z</time>
      </trkpt>
      <trkpt lat="43.51351" lon="3.01502">
        <ele>380.3387451</ele>
        <time>2010-11-07T10:34:35Z</time>
      </trkpt>
      <trkpt lat="43.51351" lon="3.01503">
        <ele>379.3774414</ele>
        <time>2010-11-07T10:34:39Z</time>
      </trkpt>
      <trkpt lat="43.51358" lon="3.01519">
        <ele>378.4161377</ele>
        <time>2010-11-07T10:34:46Z</time>
      </trkpt>
      <trkpt lat="43.51358" lon="3.01528">
        <ele>377.454834</ele>
        <time>2010-11-07T10:34:50Z</time>
      </trkpt>
      <trkpt lat="43.51355" lon="3.01546">
        <ele>375.5321045</ele>
        <time>2010-11-07T10:34:55Z</time>
      </trkpt>
      <trkpt lat="43.51353" lon="3.01557">
        <ele>375.5321045</ele>
        <time>2010-11-07T10:34:58Z</time>
      </trkpt>
      <trkpt lat="43.51351" lon="3.01565">
        <ele>374.5708008</ele>
        <time>2010-11-07T10:35:00Z</time>
      </trkpt>
      <trkpt lat="43.51345" lon="3.0159">
        <ele>373.6094971</ele>
        <time>2010-11-07T10:35:05Z</time>
      </trkpt>
      <trkpt lat="43.51337" lon="3.01615">
        <ele>372.6481934</ele>
        <time>2010-11-07T10:35:09Z</time>
      </trkpt>
      <trkpt lat="43.51324" lon="3.01644">
        <ele>371.6868896</ele>
        <time>2010-11-07T10:35:17Z</time>
      </trkpt>
      <trkpt lat="43.51324" lon="3.01644">
        <ele>372.6481934</ele>
        <time>2010-11-07T10:35:28Z</time>
      </trkpt>
      <trkpt lat="43.51304" lon="3.01676">
        <ele>373.6094971</ele>
        <time>2010-11-07T10:35:41Z</time>
      </trkpt>
      <trkpt lat="43.51286" lon="3.01694">
        <ele>374.5708008</ele>
        <time>2010-11-07T10:35:51Z</time>
      </trkpt>
      <trkpt lat="43.51268" lon="3.01708">
        <ele>373.6094971</ele>
        <time>2010-11-07T10:35:59Z</time>
      </trkpt>
      <trkpt lat="43.51244" lon="3.01723">
        <ele>371.2062988</ele>
        <time>2010-11-07T10:36:14Z</time>
      </trkpt>
      <trkpt lat="43.51235" lon="3.01728">
        <ele>371.6868896</ele>
        <time>2010-11-07T10:36:25Z</time>
      </trkpt>
      <trkpt lat="43.51211" lon="3.01752">
        <ele>371.2062988</ele>
        <time>2010-11-07T10:36:34Z</time>
      </trkpt>
      <trkpt lat="43.51202" lon="3.01772">
        <ele>368.3222656</ele>
        <time>2010-11-07T10:36:38Z</time>
      </trkpt>
      <trkpt lat="43.51178" lon="3.01827">
        <ele>366.3995361</ele>
        <time>2010-11-07T10:36:51Z</time>
      </trkpt>
      <trkpt lat="43.5117" lon="3.01842">
        <ele>362.5543213</ele>
        <time>2010-11-07T10:36:56Z</time>
      </trkpt>
      <trkpt lat="43.51161" lon="3.01857">
        <ele>360.151123</ele>
        <time>2010-11-07T10:37:02Z</time>
      </trkpt>
      <trkpt lat="43.51154" lon="3.01864">
        <ele>357.2670898</ele>
        <time>2010-11-07T10:37:06Z</time>
      </trkpt>
      <trkpt lat="43.51152" lon="3.01867">
        <ele>357.7478027</ele>
        <time>2010-11-07T10:37:08Z</time>
      </trkpt>
      <trkpt lat="43.51136" lon="3.01878">
        <ele>353.421875</ele>
        <time>2010-11-07T10:37:17Z</time>
      </trkpt>
      <trkpt lat="43.51124" lon="3.01887">
        <ele>351.4991455</ele>
        <time>2010-11-07T10:37:27Z</time>
      </trkpt>
      <trkpt lat="43.51113" lon="3.01894">
        <ele>352.9411621</ele>
        <time>2010-11-07T10:37:36Z</time>
      </trkpt>
      <trkpt lat="43.51113" lon="3.01894">
        <ele>351.0184326</ele>
        <time>2010-11-07T10:37:42Z</time>
      </trkpt>
      <trkpt lat="43.51103" lon="3.01901">
        <ele>350.057251</ele>
        <time>2010-11-07T10:37:45Z</time>
      </trkpt>
      <trkpt lat="43.51097" lon="3.01905">
        <ele>351.0184326</ele>
        <time>2010-11-07T10:37:49Z</time>
      </trkpt>
      <trkpt lat="43.51095" lon="3.01916">
        <ele>351.9798584</ele>
        <time>2010-11-07T10:37:53Z</time>
      </trkpt>
      <trkpt lat="43.51094" lon="3.01927">
        <ele>353.421875</ele>
        <time>2010-11-07T10:37:56Z</time>
      </trkpt>
      <trkpt lat="43.51092" lon="3.01942">
        <ele>354.8637695</ele>
        <time>2010-11-07T10:38:01Z</time>
      </trkpt>
      <trkpt lat="43.51089" lon="3.01975">
        <ele>356.3057861</ele>
        <time>2010-11-07T10:38:07Z</time>
      </trkpt>
      <trkpt lat="43.51089" lon="3.01984">
        <ele>352.9411621</ele>
        <time>2010-11-07T10:38:10Z</time>
      </trkpt>
      <trkpt lat="43.51087" lon="3.02023">
        <ele>351.4991455</ele>
        <time>2010-11-07T10:38:21Z</time>
      </trkpt>
      <trkpt lat="43.51086" lon="3.02027">
        <ele>350.5378418</ele>
        <time>2010-11-07T10:38:22Z</time>
      </trkpt>
      <trkpt lat="43.51085" lon="3.02039">
        <ele>349.5765381</ele>
        <time>2010-11-07T10:38:25Z</time>
      </trkpt>
      <trkpt lat="43.51083" lon="3.02049">
        <ele>347.1732178</ele>
        <time>2010-11-07T10:38:29Z</time>
      </trkpt>
      <trkpt lat="43.51077" lon="3.02068">
        <ele>343.8085938</ele>
        <time>2010-11-07T10:38:36Z</time>
      </trkpt>
      <trkpt lat="43.51075" lon="3.02078">
        <ele>341.8859863</ele>
        <time>2010-11-07T10:38:40Z</time>
      </trkpt>
      <trkpt lat="43.51072" lon="3.02088">
        <ele>342.84729</ele>
        <time>2010-11-07T10:38:43Z</time>
      </trkpt>
      <trkpt lat="43.51067" lon="3.021">
        <ele>341.4052734</ele>
        <time>2010-11-07T10:38:53Z</time>
      </trkpt>
      <trkpt lat="43.51064" lon="3.02105">
        <ele>343.3278809</ele>
        <time>2010-11-07T10:39:04Z</time>
      </trkpt>
      <trkpt lat="43.51061" lon="3.02113">
        <ele>345.2506104</ele>
        <time>2010-11-07T10:39:17Z</time>
      </trkpt>
      <trkpt lat="43.51057" lon="3.02124">
        <ele>346.692627</ele>
        <time>2010-11-07T10:39:21Z</time>
      </trkpt>
      <trkpt lat="43.51038" lon="3.0215">
        <ele>347.1732178</ele>
        <time>2010-11-07T10:39:30Z</time>
      </trkpt>
      <trkpt lat="43.51034" lon="3.02155">
        <ele>345.7313232</ele>
        <time>2010-11-07T10:39:41Z</time>
      </trkpt>
      <trkpt lat="43.51021" lon="3.02165">
        <ele>346.692627</ele>
        <time>2010-11-07T10:39:53Z</time>
      </trkpt>
      <trkpt lat="43.51008" lon="3.02176">
        <ele>347.6539307</ele>
        <time>2010-11-07T10:40:06Z</time>
      </trkpt>
      <trkpt lat="43.50993" lon="3.02181">
        <ele>351.9798584</ele>
        <time>2010-11-07T10:40:14Z</time>
      </trkpt>
      <trkpt lat="43.50963" lon="3.02207">
        <ele>351.9798584</ele>
        <time>2010-11-07T10:40:25Z</time>
      </trkpt>
      <trkpt lat="43.50936" lon="3.02238">
        <ele>351.9798584</ele>
        <time>2010-11-07T10:40:37Z</time>
      </trkpt>
      <trkpt lat="43.5091" lon="3.0226">
        <ele>347.6539307</ele>
        <time>2010-11-07T10:40:47Z</time>
      </trkpt>
      <trkpt lat="43.50908" lon="3.02261">
        <ele>347.1732178</ele>
        <time>2010-11-07T10:40:48Z</time>
      </trkpt>
      <trkpt lat="43.50887" lon="3.02275">
        <ele>345.2506104</ele>
        <time>2010-11-07T10:41:01Z</time>
      </trkpt>
      <trkpt lat="43.50884" lon="3.02276">
        <ele>344.2894287</ele>
        <time>2010-11-07T10:41:02Z</time>
      </trkpt>
      <trkpt lat="43.50868" lon="3.02282">
        <ele>340.9246826</ele>
        <time>2010-11-07T10:41:08Z</time>
      </trkpt>
      <trkpt lat="43.50841" lon="3.02273">
        <ele>336.598877</ele>
        <time>2010-11-07T10:41:18Z</time>
      </trkpt>
      <trkpt lat="43.50827" lon="3.02268">
        <ele>334.6761475</ele>
        <time>2010-11-07T10:41:21Z</time>
      </trkpt>
      <trkpt lat="43.50803" lon="3.02269">
        <ele>332.75354</ele>
        <time>2010-11-07T10:41:26Z</time>
      </trkpt>
      <trkpt lat="43.50784" lon="3.02274">
        <ele>331.3115234</ele>
        <time>2010-11-07T10:41:30Z</time>
      </trkpt>
      <trkpt lat="43.50738" lon="3.02297">
        <ele>332.2728271</ele>
        <time>2010-11-07T10:41:40Z</time>
      </trkpt>
      <trkpt lat="43.50724" lon="3.02308">
        <ele>329.388916</ele>
        <time>2010-11-07T10:41:43Z</time>
      </trkpt>
      <trkpt lat="43.50703" lon="3.02327">
        <ele>326.9855957</ele>
        <time>2010-11-07T10:41:48Z</time>
      </trkpt>
      <trkpt lat="43.50688" lon="3.02341">
        <ele>324.1015625</ele>
        <time>2010-11-07T10:41:52Z</time>
      </trkpt>
      <trkpt lat="43.5066" lon="3.02363">
        <ele>317.8530273</ele>
        <time>2010-11-07T10:42:00Z</time>
      </trkpt>
      <trkpt lat="43.50652" lon="3.02367">
        <ele>314.4884033</ele>
        <time>2010-11-07T10:42:04Z</time>
      </trkpt>
      <trkpt lat="43.50625" lon="3.0237">
        <ele>310.6430664</ele>
        <time>2010-11-07T10:42:14Z</time>
      </trkpt>
      <trkpt lat="43.50606" lon="3.0238">
        <ele>305.8366699</ele>
        <time>2010-11-07T10:42:20Z</time>
      </trkpt>
      <trkpt lat="43.50592" lon="3.02394">
        <ele>300.5493164</ele>
        <time>2010-11-07T10:42:29Z</time>
      </trkpt>
      <trkpt lat="43.50592" lon="3.02394">
        <ele>298.626709</ele>
        <time>2010-11-07T10:42:35Z</time>
      </trkpt>
      <trkpt lat="43.50603" lon="3.02425">
        <ele>298.1461182</ele>
        <time>2010-11-07T10:42:38Z</time>
      </trkpt>
      <trkpt lat="43.50601" lon="3.02429">
        <ele>297.6654053</ele>
        <time>2010-11-07T10:42:41Z</time>
      </trkpt>
      <trkpt lat="43.50598" lon="3.0245">
        <ele>296.2235107</ele>
        <time>2010-11-07T10:42:50Z</time>
      </trkpt>
      <trkpt lat="43.50594" lon="3.02454">
        <ele>294.3007813</ele>
        <time>2010-11-07T10:42:59Z</time>
      </trkpt>
      <trkpt lat="43.50592" lon="3.02459">
        <ele>292.8587646</ele>
        <time>2010-11-07T10:43:02Z</time>
      </trkpt>
      <trkpt lat="43.50588" lon="3.02466">
        <ele>291.416748</ele>
        <time>2010-11-07T10:43:05Z</time>
      </trkpt>
      <trkpt lat="43.50579" lon="3.02473">
        <ele>289.4941406</ele>
        <time>2010-11-07T10:43:09Z</time>
      </trkpt>
      <trkpt lat="43.50571" lon="3.02484">
        <ele>288.532959</ele>
        <time>2010-11-07T10:43:12Z</time>
      </trkpt>
      <trkpt lat="43.50551" lon="3.02481">
        <ele>283.7261963</ele>
        <time>2010-11-07T10:43:20Z</time>
      </trkpt>
      <trkpt lat="43.50539" lon="3.02485">
        <ele>280.3616943</ele>
        <time>2010-11-07T10:43:26Z</time>
      </trkpt>
      <trkpt lat="43.50536" lon="3.02501">
        <ele>277.958252</ele>
        <time>2010-11-07T10:43:32Z</time>
      </trkpt>
      <trkpt lat="43.50532" lon="3.02499">
        <ele>276.9970703</ele>
        <time>2010-11-07T10:43:35Z</time>
      </trkpt>
      <trkpt lat="43.50528" lon="3.02482">
        <ele>275.5550537</ele>
        <time>2010-11-07T10:43:41Z</time>
      </trkpt>
      <trkpt lat="43.5054" lon="3.02451">
        <ele>275.0744629</ele>
        <time>2010-11-07T10:43:43Z</time>
      </trkpt>
      <trkpt lat="43.50526" lon="3.02437">
        <ele>272.6711426</ele>
        <time>2010-11-07T10:43:48Z</time>
      </trkpt>
      <trkpt lat="43.50507" lon="3.02382">
        <ele>269.7871094</ele>
        <time>2010-11-07T10:43:58Z</time>
      </trkpt>
      <trkpt lat="43.50505" lon="3.02347">
        <ele>269.7871094</ele>
        <time>2010-11-07T10:44:03Z</time>
      </trkpt>
      <trkpt lat="43.50498" lon="3.02328">
        <ele>269.3065186</ele>
        <time>2010-11-07T10:44:07Z</time>
      </trkpt>
      <trkpt lat="43.50488" lon="3.02297">
        <ele>266.4224854</ele>
        <time>2010-11-07T10:44:12Z</time>
      </trkpt>
      <trkpt lat="43.50484" lon="3.02282">
        <ele>264.4998779</ele>
        <time>2010-11-07T10:44:15Z</time>
      </trkpt>
      <trkpt lat="43.50482" lon="3.02269">
        <ele>263.0578613</ele>
        <time>2010-11-07T10:44:17Z</time>
      </trkpt>
      <trkpt lat="43.50478" lon="3.02249">
        <ele>260.1739502</ele>
        <time>2010-11-07T10:44:21Z</time>
      </trkpt>
      <trkpt lat="43.50474" lon="3.0223">
        <ele>257.770752</ele>
        <time>2010-11-07T10:44:25Z</time>
      </trkpt>
      <trkpt lat="43.50472" lon="3.02221">
        <ele>256.8093262</ele>
        <time>2010-11-07T10:44:27Z</time>
      </trkpt>
      <trkpt lat="43.50463" lon="3.02194">
        <ele>252.4833984</ele>
        <time>2010-11-07T10:44:33Z</time>
      </trkpt>
      <trkpt lat="43.50454" lon="3.02196">
        <ele>249.1187744</ele>
        <time>2010-11-07T10:44:37Z</time>
      </trkpt>
      <trkpt lat="43.50437" lon="3.0221">
        <ele>244.7928467</ele>
        <time>2010-11-07T10:44:43Z</time>
      </trkpt>
      <trkpt lat="43.50433" lon="3.02216">
        <ele>243.3508301</ele>
        <time>2010-11-07T10:44:45Z</time>
      </trkpt>
      <trkpt lat="43.5043" lon="3.02232">
        <ele>242.3896484</ele>
        <time>2010-11-07T10:44:49Z</time>
      </trkpt>
      <trkpt lat="43.50424" lon="3.02273">
        <ele>238.5443115</ele>
        <time>2010-11-07T10:45:00Z</time>
      </trkpt>
      <trkpt lat="43.50424" lon="3.02337">
        <ele>231.8149414</ele>
        <time>2010-11-07T10:45:13Z</time>
      </trkpt>
      <trkpt lat="43.50423" lon="3.02367">
        <ele>225.0859375</ele>
        <time>2010-11-07T10:45:21Z</time>
      </trkpt>
      <trkpt lat="43.50424" lon="3.02371">
        <ele>222.6824951</ele>
        <time>2010-11-07T10:45:26Z</time>
      </trkpt>
      <trkpt lat="43.50423" lon="3.02367">
        <ele>222.2017822</ele>
        <time>2010-11-07T10:45:28Z</time>
      </trkpt>
      <trkpt lat="43.50389" lon="3.02339">
        <ele>216.43396</ele>
        <time>2010-11-07T10:45:36Z</time>
      </trkpt>
      <trkpt lat="43.50365" lon="3.02283">
        <ele>211.6274414</ele>
        <time>2010-11-07T10:45:47Z</time>
      </trkpt>
      <trkpt lat="43.50359" lon="3.02265">
        <ele>209.704834</ele>
        <time>2010-11-07T10:45:51Z</time>
      </trkpt>
      <trkpt lat="43.50349" lon="3.02237">
        <ele>207.3013916</ele>
        <time>2010-11-07T10:45:56Z</time>
      </trkpt>
      <trkpt lat="43.50339" lon="3.02215">
        <ele>205.8594971</ele>
        <time>2010-11-07T10:46:01Z</time>
      </trkpt>
      <trkpt lat="43.5033" lon="3.02193">
        <ele>203.4561768</ele>
        <time>2010-11-07T10:46:06Z</time>
      </trkpt>
      <trkpt lat="43.50326" lon="3.02176">
        <ele>202.494873</ele>
        <time>2010-11-07T10:46:09Z</time>
      </trkpt>
      <trkpt lat="43.50322" lon="3.02153">
        <ele>200.0916748</ele>
        <time>2010-11-07T10:46:13Z</time>
      </trkpt>
      <trkpt lat="43.50322" lon="3.02146">
        <ele>199.6108398</ele>
        <time>2010-11-07T10:46:15Z</time>
      </trkpt>
      <trkpt lat="43.5032" lon="3.02147">
        <ele>197.6882324</ele>
        <time>2010-11-07T10:46:20Z</time>
      </trkpt>
      <trkpt lat="43.50308" lon="3.02177">
        <ele>193.8430176</ele>
        <time>2010-11-07T10:46:26Z</time>
      </trkpt>
      <trkpt lat="43.503" lon="3.02164">
        <ele>190.4783936</ele>
        <time>2010-11-07T10:46:33Z</time>
      </trkpt>
      <trkpt lat="43.50294" lon="3.0218">
        <ele>188.5557861</ele>
        <time>2010-11-07T10:46:39Z</time>
      </trkpt>
      <trkpt lat="43.50295" lon="3.0225">
        <ele>179.9038086</ele>
        <time>2010-11-07T10:46:50Z</time>
      </trkpt>
      <trkpt lat="43.50296" lon="3.02261">
        <ele>178.942627</ele>
        <time>2010-11-07T10:46:52Z</time>
      </trkpt>
      <trkpt lat="43.50302" lon="3.02307">
        <ele>177.5006104</ele>
        <time>2010-11-07T10:47:02Z</time>
      </trkpt>
      <trkpt lat="43.50302" lon="3.02312">
        <ele>177.0200195</ele>
        <time>2010-11-07T10:47:03Z</time>
      </trkpt>
      <trkpt lat="43.50299" lon="3.02343">
        <ele>172.6939697</ele>
        <time>2010-11-07T10:47:11Z</time>
      </trkpt>
      <trkpt lat="43.50291" lon="3.02337">
        <ele>170.2906494</ele>
        <time>2010-11-07T10:47:16Z</time>
      </trkpt>
      <trkpt lat="43.50287" lon="3.02329">
        <ele>168.8487549</ele>
        <time>2010-11-07T10:47:19Z</time>
      </trkpt>
      <trkpt lat="43.5029" lon="3.02357">
        <ele>165.4841309</ele>
        <time>2010-11-07T10:47:25Z</time>
      </trkpt>
      <trkpt lat="43.5029" lon="3.02389">
        <ele>160.6774902</ele>
        <time>2010-11-07T10:47:32Z</time>
      </trkpt>
      <trkpt lat="43.50285" lon="3.02382">
        <ele>157.7935791</ele>
        <time>2010-11-07T10:47:37Z</time>
      </trkpt>
      <trkpt lat="43.50281" lon="3.02383">
        <ele>156.3515625</ele>
        <time>2010-11-07T10:47:42Z</time>
      </trkpt>
      <trkpt lat="43.5028" lon="3.02398">
        <ele>152.9869385</ele>
        <time>2010-11-07T10:47:49Z</time>
      </trkpt>
      <trkpt lat="43.50274" lon="3.02393">
        <ele>150.1030273</ele>
        <time>2010-11-07T10:47:56Z</time>
      </trkpt>
      <trkpt lat="43.50278" lon="3.0241">
        <ele>148.6610107</ele>
        <time>2010-11-07T10:48:01Z</time>
      </trkpt>
      <trkpt lat="43.50281" lon="3.02413">
        <ele>148.1804199</ele>
        <time>2010-11-07T10:48:03Z</time>
      </trkpt>
      <trkpt lat="43.50278" lon="3.02421">
        <ele>146.7384033</ele>
        <time>2010-11-07T10:48:07Z</time>
      </trkpt>
      <trkpt lat="43.50269" lon="3.02422">
        <ele>145.2963867</ele>
        <time>2010-11-07T10:48:10Z</time>
      </trkpt>
      <trkpt lat="43.50256" lon="3.02409">
        <ele>143.3736572</ele>
        <time>2010-11-07T10:48:14Z</time>
      </trkpt>
      <trkpt lat="43.50246" lon="3.02384">
        <ele>142.4124756</ele>
        <time>2010-11-07T10:48:19Z</time>
      </trkpt>
      <trkpt lat="43.50234" lon="3.02346">
        <ele>139.0478516</ele>
        <time>2010-11-07T10:48:26Z</time>
      </trkpt>
      <trkpt lat="43.50229" lon="3.02312">
        <ele>138.5672607</ele>
        <time>2010-11-07T10:48:31Z</time>
      </trkpt>
      <trkpt lat="43.50225" lon="3.02291">
        <ele>139.0478516</ele>
        <time>2010-11-07T10:48:35Z</time>
      </trkpt>
      <trkpt lat="43.50222" lon="3.0228">
        <ele>138.5672607</ele>
        <time>2010-11-07T10:48:44Z</time>
      </trkpt>
      <trkpt lat="43.50222" lon="3.0228">
        <ele>138.5672607</ele>
        <time>2010-11-07T10:51:08Z</time>
      </trkpt>
      <trkpt lat="43.50222" lon="3.0228">
        <ele>138.5672607</ele>
        <time>2010-11-07T10:52:37Z</time>
      </trkpt>
      <trkpt lat="43.50222" lon="3.0228">
        <ele>138.5672607</ele>
        <time>2010-11-07T10:53:46Z</time>
      </trkpt>
      <trkpt lat="43.50206" lon="3.02243">
        <ele>135.2025146</ele>
        <time>2010-11-07T10:53:59Z</time>
      </trkpt>
      <trkpt lat="43.50203" lon="3.02232">
        <ele>134.7219238</ele>
        <time>2010-11-07T10:54:01Z</time>
      </trkpt>
      <trkpt lat="43.50184" lon="3.02171">
        <ele>128.4733887</ele>
        <time>2010-11-07T10:54:13Z</time>
      </trkpt>
      <trkpt lat="43.50183" lon="3.02167">
        <ele>127.5119629</ele>
        <time>2010-11-07T10:54:14Z</time>
      </trkpt>
      <trkpt lat="43.50168" lon="3.02168">
        <ele>124.6280518</ele>
        <time>2010-11-07T10:54:18Z</time>
      </trkpt>
      <trkpt lat="43.50073" lon="3.02184">
        <ele>113.572998</ele>
        <time>2010-11-07T10:54:36Z</time>
      </trkpt>
      <trkpt lat="43.50046" lon="3.02189">
        <ele>109.2469482</ele>
        <time>2010-11-07T10:54:42Z</time>
      </trkpt>
      <trkpt lat="43.50053" lon="3.0223">
        <ele>105.8824463</ele>
        <time>2010-11-07T10:54:51Z</time>
      </trkpt>
      <trkpt lat="43.50065" lon="3.02262">
        <ele>105.4017334</ele>
        <time>2010-11-07T10:54:57Z</time>
      </trkpt>
      <trkpt lat="43.50055" lon="3.02284">
        <ele>103.9597168</ele>
        <time>2010-11-07T10:55:02Z</time>
      </trkpt>
      <trkpt lat="43.50019" lon="3.02305">
        <ele>99.6337891</ele>
        <time>2010-11-07T10:55:08Z</time>
      </trkpt>
      <trkpt lat="43.4999" lon="3.02313">
        <ele>96.7498779</ele>
        <time>2010-11-07T10:55:12Z</time>
      </trkpt>
      <trkpt lat="43.49979" lon="3.02304">
        <ele>95.3077393</ele>
        <time>2010-11-07T10:55:15Z</time>
      </trkpt>
      <trkpt lat="43.49961" lon="3.02312">
        <ele>91.9432373</ele>
        <time>2010-11-07T10:55:21Z</time>
      </trkpt>
      <trkpt lat="43.49974" lon="3.02351">
        <ele>91.9432373</ele>
        <time>2010-11-07T10:55:30Z</time>
      </trkpt>
      <trkpt lat="43.49976" lon="3.02357">
        <ele>91.9432373</ele>
        <time>2010-11-07T10:55:31Z</time>
      </trkpt>
      <trkpt lat="43.50006" lon="3.02426">
        <ele>91.9432373</ele>
        <time>2010-11-07T10:55:47Z</time>
      </trkpt>
      <trkpt lat="43.50034" lon="3.02521">
        <ele>89.539917</ele>
        <time>2010-11-07T10:56:07Z</time>
      </trkpt>
      <trkpt lat="43.5004" lon="3.02607">
        <ele>89.0593262</ele>
        <time>2010-11-07T10:56:25Z</time>
      </trkpt>
      <trkpt lat="43.50048" lon="3.02719">
        <ele>89.539917</ele>
        <time>2010-11-07T10:56:44Z</time>
      </trkpt>
      <trkpt lat="43.5005" lon="3.0276">
        <ele>90.5013428</ele>
        <time>2010-11-07T10:56:55Z</time>
      </trkpt>
      <trkpt lat="43.5005" lon="3.0276">
        <ele>89.539917</ele>
        <time>2010-11-07T10:57:19Z</time>
      </trkpt>
      <trkpt lat="43.5005" lon="3.0276">
        <ele>90.0206299</ele>
        <time>2010-11-07T10:58:32Z</time>
      </trkpt>
      <trkpt lat="43.50036" lon="3.02776">
        <ele>90.5013428</ele>
        <time>2010-11-07T10:58:37Z</time>
      </trkpt>
      <trkpt lat="43.49943" lon="3.02823">
        <ele>90.5013428</ele>
        <time>2010-11-07T10:58:50Z</time>
      </trkpt>
      <trkpt lat="43.49878" lon="3.02859">
        <ele>90.9819336</ele>
        <time>2010-11-07T10:58:59Z</time>
      </trkpt>
      <trkpt lat="43.49861" lon="3.02826">
        <ele>90.0206299</ele>
        <time>2010-11-07T10:59:05Z</time>
      </trkpt>
      <trkpt lat="43.4984" lon="3.02738">
        <ele>88.5787354</ele>
        <time>2010-11-07T10:59:16Z</time>
      </trkpt>
      <trkpt lat="43.49833" lon="3.02709">
        <ele>84.7333984</ele>
        <time>2010-11-07T10:59:20Z</time>
      </trkpt>
      <trkpt lat="43.49858" lon="3.02682">
        <ele>80.8881836</ele>
        <time>2010-11-07T10:59:27Z</time>
      </trkpt>
      <trkpt lat="43.4986" lon="3.02682">
        <ele>78.9654541</ele>
        <time>2010-11-07T10:59:39Z</time>
      </trkpt>
      <trkpt lat="43.49855" lon="3.02679">
        <ele>78.9654541</ele>
        <time>2010-11-07T11:00:18Z</time>
      </trkpt>
      <trkpt lat="43.49854" lon="3.02678">
        <ele>79.4460449</ele>
        <time>2010-11-07T11:00:37Z</time>
      </trkpt>
      <trkpt lat="43.49851" lon="3.02676">
        <ele>80.4074707</ele>
        <time>2010-11-07T11:01:01Z</time>
      </trkpt>
      <trkpt lat="43.49855" lon="3.02678">
        <ele>80.8881836</ele>
        <time>2010-11-07T11:02:13Z</time>
      </trkpt>
    </trkseg>
  </trk>
</gpx>